<?xml version="1.0" encoding="UTF-8" standalone="no" ?>
<gpx xmlns="http://www.topografix.com/GPX/1/1" xmlns:xsi="http://www.w3.org/2001/XMLSchema-instance" xsi:schemaLocation="http://www.topografix.com/GPX/1/1 http://www.topografix.com/GPX/1/1/gpx.xsd" version="1.1" creator="VisuGPX - https://www.visugpx.com">
  <metadata>
    <name>Puy st Martin - Roynac</name>
  </metadata>
  <trk>
    <name><![CDATA[2021-12-15 16:19:05]]></name>
    <trkseg>
      <trkpt lat="44.62791" lon="4.97475">
        <ele>209.7</ele>
        <time>2021-12-15T08:26:29Z</time>
      </trkpt>
      <trkpt lat="44.62791" lon="4.97475">
        <ele>209.7</ele>
        <time>2021-12-15T08:26:30Z</time>
      </trkpt>
      <trkpt lat="44.62791" lon="4.97476">
        <ele>212.59</ele>
        <time>2021-12-15T08:26:49Z</time>
      </trkpt>
      <trkpt lat="44.62791" lon="4.97476">
        <ele>211.63</ele>
        <time>2021-12-15T08:27:24Z</time>
      </trkpt>
      <trkpt lat="44.62791" lon="4.97476">
        <ele>211.63</ele>
        <time>2021-12-15T08:27:54Z</time>
      </trkpt>
      <trkpt lat="44.6279" lon="4.97476">
        <ele>210.67</ele>
        <time>2021-12-15T08:28:35Z</time>
      </trkpt>
      <trkpt lat="44.6279" lon="4.97481">
        <ele>212.59</ele>
        <time>2021-12-15T08:28:51Z</time>
      </trkpt>
      <trkpt lat="44.62796" lon="4.97487">
        <ele>213.07</ele>
        <time>2021-12-15T08:29:08Z</time>
      </trkpt>
      <trkpt lat="44.62797" lon="4.97487">
        <ele>212.59</ele>
        <time>2021-12-15T08:29:28Z</time>
      </trkpt>
      <trkpt lat="44.62797" lon="4.97486">
        <ele>212.11</ele>
        <time>2021-12-15T08:29:52Z</time>
      </trkpt>
      <trkpt lat="44.62797" lon="4.97483">
        <ele>212.11</ele>
        <time>2021-12-15T08:30:04Z</time>
      </trkpt>
      <trkpt lat="44.62797" lon="4.97483">
        <ele>212.11</ele>
        <time>2021-12-15T08:30:22Z</time>
      </trkpt>
      <trkpt lat="44.62799" lon="4.97484">
        <ele>211.63</ele>
        <time>2021-12-15T08:30:43Z</time>
      </trkpt>
      <trkpt lat="44.62799" lon="4.97485">
        <ele>211.63</ele>
        <time>2021-12-15T08:30:59Z</time>
      </trkpt>
      <trkpt lat="44.62799" lon="4.97485">
        <ele>211.63</ele>
        <time>2021-12-15T08:31:21Z</time>
      </trkpt>
      <trkpt lat="44.62803" lon="4.97479">
        <ele>210.67</ele>
        <time>2021-12-15T08:31:36Z</time>
      </trkpt>
      <trkpt lat="44.6281" lon="4.97473">
        <ele>210.67</ele>
        <time>2021-12-15T08:31:49Z</time>
      </trkpt>
      <trkpt lat="44.62812" lon="4.97472">
        <ele>210.67</ele>
        <time>2021-12-15T08:32:09Z</time>
      </trkpt>
      <trkpt lat="44.62812" lon="4.97469">
        <ele>210.67</ele>
        <time>2021-12-15T08:32:37Z</time>
      </trkpt>
      <trkpt lat="44.62812" lon="4.97466">
        <ele>210.67</ele>
        <time>2021-12-15T08:32:41Z</time>
      </trkpt>
      <trkpt lat="44.62812" lon="4.97463">
        <ele>210.67</ele>
        <time>2021-12-15T08:32:43Z</time>
      </trkpt>
      <trkpt lat="44.62812" lon="4.97461">
        <ele>210.67</ele>
        <time>2021-12-15T08:32:44Z</time>
      </trkpt>
      <trkpt lat="44.62816" lon="4.97437">
        <ele>210.67</ele>
        <time>2021-12-15T08:33:00Z</time>
      </trkpt>
      <trkpt lat="44.62818" lon="4.97419">
        <ele>211.15</ele>
        <time>2021-12-15T08:33:16Z</time>
      </trkpt>
      <trkpt lat="44.62819" lon="4.9741">
        <ele>211.15</ele>
        <time>2021-12-15T08:33:23Z</time>
      </trkpt>
      <trkpt lat="44.62819" lon="4.97409">
        <ele>211.15</ele>
        <time>2021-12-15T08:33:24Z</time>
      </trkpt>
      <trkpt lat="44.62819" lon="4.97407">
        <ele>211.15</ele>
        <time>2021-12-15T08:33:25Z</time>
      </trkpt>
      <trkpt lat="44.62819" lon="4.97405">
        <ele>210.67</ele>
        <time>2021-12-15T08:33:26Z</time>
      </trkpt>
      <trkpt lat="44.62819" lon="4.97404">
        <ele>210.67</ele>
        <time>2021-12-15T08:33:27Z</time>
      </trkpt>
      <trkpt lat="44.6282" lon="4.97402">
        <ele>210.67</ele>
        <time>2021-12-15T08:33:28Z</time>
      </trkpt>
      <trkpt lat="44.6282" lon="4.974">
        <ele>210.67</ele>
        <time>2021-12-15T08:33:29Z</time>
      </trkpt>
      <trkpt lat="44.62824" lon="4.97373">
        <ele>211.63</ele>
        <time>2021-12-15T08:33:48Z</time>
      </trkpt>
      <trkpt lat="44.62838" lon="4.97373">
        <ele>213.55</ele>
        <time>2021-12-15T08:34:05Z</time>
      </trkpt>
      <trkpt lat="44.62842" lon="4.97372">
        <ele>214.03</ele>
        <time>2021-12-15T08:34:08Z</time>
      </trkpt>
      <trkpt lat="44.62861" lon="4.97373">
        <ele>217.4</ele>
        <time>2021-12-15T08:34:26Z</time>
      </trkpt>
      <trkpt lat="44.62877" lon="4.97373">
        <ele>218.84</ele>
        <time>2021-12-15T08:34:42Z</time>
      </trkpt>
      <trkpt lat="44.6289" lon="4.9738">
        <ele>218.84</ele>
        <time>2021-12-15T08:34:56Z</time>
      </trkpt>
      <trkpt lat="44.62891" lon="4.97382">
        <ele>218.84</ele>
        <time>2021-12-15T08:34:57Z</time>
      </trkpt>
      <trkpt lat="44.62892" lon="4.97393">
        <ele>219.32</ele>
        <time>2021-12-15T08:35:07Z</time>
      </trkpt>
      <trkpt lat="44.62893" lon="4.97396">
        <ele>218.84</ele>
        <time>2021-12-15T08:35:09Z</time>
      </trkpt>
      <trkpt lat="44.62894" lon="4.97397">
        <ele>218.84</ele>
        <time>2021-12-15T08:35:10Z</time>
      </trkpt>
      <trkpt lat="44.62895" lon="4.97399">
        <ele>218.84</ele>
        <time>2021-12-15T08:35:11Z</time>
      </trkpt>
      <trkpt lat="44.62895" lon="4.974">
        <ele>218.84</ele>
        <time>2021-12-15T08:35:12Z</time>
      </trkpt>
      <trkpt lat="44.62895" lon="4.97402">
        <ele>218.84</ele>
        <time>2021-12-15T08:35:13Z</time>
      </trkpt>
      <trkpt lat="44.62896" lon="4.97404">
        <ele>218.84</ele>
        <time>2021-12-15T08:35:14Z</time>
      </trkpt>
      <trkpt lat="44.62896" lon="4.97405">
        <ele>218.84</ele>
        <time>2021-12-15T08:35:15Z</time>
      </trkpt>
      <trkpt lat="44.62899" lon="4.97449">
        <ele>216.91</ele>
        <time>2021-12-15T08:35:42Z</time>
      </trkpt>
      <trkpt lat="44.62902" lon="4.97459">
        <ele>218.36</ele>
        <time>2021-12-15T08:35:50Z</time>
      </trkpt>
      <trkpt lat="44.62903" lon="4.9746">
        <ele>218.36</ele>
        <time>2021-12-15T08:35:51Z</time>
      </trkpt>
      <trkpt lat="44.62904" lon="4.97459">
        <ele>218.36</ele>
        <time>2021-12-15T08:35:52Z</time>
      </trkpt>
      <trkpt lat="44.62913" lon="4.97459">
        <ele>218.84</ele>
        <time>2021-12-15T08:36:08Z</time>
      </trkpt>
      <trkpt lat="44.62908" lon="4.97461">
        <ele>219.32</ele>
        <time>2021-12-15T08:36:15Z</time>
      </trkpt>
      <trkpt lat="44.62901" lon="4.97459">
        <ele>219.32</ele>
        <time>2021-12-15T08:36:29Z</time>
      </trkpt>
      <trkpt lat="44.62899" lon="4.9745">
        <ele>219.32</ele>
        <time>2021-12-15T08:36:37Z</time>
      </trkpt>
      <trkpt lat="44.62899" lon="4.97449">
        <ele>219.32</ele>
        <time>2021-12-15T08:36:38Z</time>
      </trkpt>
      <trkpt lat="44.62899" lon="4.97447">
        <ele>219.32</ele>
        <time>2021-12-15T08:36:39Z</time>
      </trkpt>
      <trkpt lat="44.62899" lon="4.97446">
        <ele>219.32</ele>
        <time>2021-12-15T08:36:40Z</time>
      </trkpt>
      <trkpt lat="44.62899" lon="4.97415">
        <ele>218.84</ele>
        <time>2021-12-15T08:37:00Z</time>
      </trkpt>
      <trkpt lat="44.62895" lon="4.97385">
        <ele>218.84</ele>
        <time>2021-12-15T08:37:21Z</time>
      </trkpt>
      <trkpt lat="44.62894" lon="4.97377">
        <ele>219.32</ele>
        <time>2021-12-15T08:37:26Z</time>
      </trkpt>
      <trkpt lat="44.62895" lon="4.97361">
        <ele>220.28</ele>
        <time>2021-12-15T08:37:39Z</time>
      </trkpt>
      <trkpt lat="44.62894" lon="4.97359">
        <ele>220.76</ele>
        <time>2021-12-15T08:37:40Z</time>
      </trkpt>
      <trkpt lat="44.62891" lon="4.97338">
        <ele>223.16</ele>
        <time>2021-12-15T08:37:59Z</time>
      </trkpt>
      <trkpt lat="44.62884" lon="4.9733">
        <ele>224.61</ele>
        <time>2021-12-15T08:38:08Z</time>
      </trkpt>
      <trkpt lat="44.62883" lon="4.97329">
        <ele>224.61</ele>
        <time>2021-12-15T08:38:09Z</time>
      </trkpt>
      <trkpt lat="44.62875" lon="4.9731">
        <ele>226.05</ele>
        <time>2021-12-15T08:38:26Z</time>
      </trkpt>
      <trkpt lat="44.62879" lon="4.97292">
        <ele>229.41</ele>
        <time>2021-12-15T08:38:45Z</time>
      </trkpt>
      <trkpt lat="44.62888" lon="4.97299">
        <ele>231.33</ele>
        <time>2021-12-15T08:39:01Z</time>
      </trkpt>
      <trkpt lat="44.62888" lon="4.97285">
        <ele>234.22</ele>
        <time>2021-12-15T08:39:16Z</time>
      </trkpt>
      <trkpt lat="44.62886" lon="4.97259">
        <ele>235.66</ele>
        <time>2021-12-15T08:39:37Z</time>
      </trkpt>
      <trkpt lat="44.6289" lon="4.97232">
        <ele>238.54</ele>
        <time>2021-12-15T08:39:59Z</time>
      </trkpt>
      <trkpt lat="44.62894" lon="4.97218">
        <ele>240.95</ele>
        <time>2021-12-15T08:40:15Z</time>
      </trkpt>
      <trkpt lat="44.62902" lon="4.97224">
        <ele>242.39</ele>
        <time>2021-12-15T08:40:31Z</time>
      </trkpt>
      <trkpt lat="44.6291" lon="4.9722">
        <ele>245.27</ele>
        <time>2021-12-15T08:40:47Z</time>
      </trkpt>
      <trkpt lat="44.62917" lon="4.97221">
        <ele>248.64</ele>
        <time>2021-12-15T08:41:05Z</time>
      </trkpt>
      <trkpt lat="44.62925" lon="4.97211">
        <ele>251.04</ele>
        <time>2021-12-15T08:41:23Z</time>
      </trkpt>
      <trkpt lat="44.62937" lon="4.97199">
        <ele>253.44</ele>
        <time>2021-12-15T08:41:44Z</time>
      </trkpt>
      <trkpt lat="44.62951" lon="4.97196">
        <ele>255.85</ele>
        <time>2021-12-15T08:42:02Z</time>
      </trkpt>
      <trkpt lat="44.62965" lon="4.97194">
        <ele>257.29</ele>
        <time>2021-12-15T08:42:20Z</time>
      </trkpt>
      <trkpt lat="44.62975" lon="4.972">
        <ele>259.69</ele>
        <time>2021-12-15T08:42:38Z</time>
      </trkpt>
      <trkpt lat="44.62984" lon="4.97214">
        <ele>262.58</ele>
        <time>2021-12-15T08:42:58Z</time>
      </trkpt>
      <trkpt lat="44.62979" lon="4.9722">
        <ele>265.94</ele>
        <time>2021-12-15T08:43:19Z</time>
      </trkpt>
      <trkpt lat="44.62975" lon="4.97216">
        <ele>266.42</ele>
        <time>2021-12-15T08:43:24Z</time>
      </trkpt>
      <trkpt lat="44.62968" lon="4.97217">
        <ele>267.38</ele>
        <time>2021-12-15T08:43:32Z</time>
      </trkpt>
      <trkpt lat="44.62966" lon="4.97217">
        <ele>267.38</ele>
        <time>2021-12-15T08:43:33Z</time>
      </trkpt>
      <trkpt lat="44.62965" lon="4.97217">
        <ele>267.38</ele>
        <time>2021-12-15T08:43:34Z</time>
      </trkpt>
      <trkpt lat="44.62964" lon="4.97218">
        <ele>267.38</ele>
        <time>2021-12-15T08:43:35Z</time>
      </trkpt>
      <trkpt lat="44.6295" lon="4.97229">
        <ele>268.35</ele>
        <time>2021-12-15T08:43:57Z</time>
      </trkpt>
      <trkpt lat="44.62944" lon="4.97229">
        <ele>269.79</ele>
        <time>2021-12-15T08:44:14Z</time>
      </trkpt>
      <trkpt lat="44.62943" lon="4.97226">
        <ele>270.27</ele>
        <time>2021-12-15T08:44:32Z</time>
      </trkpt>
      <trkpt lat="44.62943" lon="4.97227">
        <ele>270.75</ele>
        <time>2021-12-15T08:45:13Z</time>
      </trkpt>
      <trkpt lat="44.62942" lon="4.97227">
        <ele>270.27</ele>
        <time>2021-12-15T08:45:44Z</time>
      </trkpt>
      <trkpt lat="44.62942" lon="4.97227">
        <ele>270.27</ele>
        <time>2021-12-15T08:46:12Z</time>
      </trkpt>
      <trkpt lat="44.62943" lon="4.97227">
        <ele>269.79</ele>
        <time>2021-12-15T08:46:39Z</time>
      </trkpt>
      <trkpt lat="44.62943" lon="4.97226">
        <ele>269.79</ele>
        <time>2021-12-15T08:47:09Z</time>
      </trkpt>
      <trkpt lat="44.62946" lon="4.97228">
        <ele>270.27</ele>
        <time>2021-12-15T08:47:30Z</time>
      </trkpt>
      <trkpt lat="44.62947" lon="4.97235">
        <ele>267.86</ele>
        <time>2021-12-15T08:47:47Z</time>
      </trkpt>
      <trkpt lat="44.62946" lon="4.97238">
        <ele>267.38</ele>
        <time>2021-12-15T08:47:50Z</time>
      </trkpt>
      <trkpt lat="44.62947" lon="4.9724">
        <ele>267.38</ele>
        <time>2021-12-15T08:48:06Z</time>
      </trkpt>
      <trkpt lat="44.62943" lon="4.97248">
        <ele>266.9</ele>
        <time>2021-12-15T08:48:38Z</time>
      </trkpt>
      <trkpt lat="44.62944" lon="4.97267">
        <ele>264.02</ele>
        <time>2021-12-15T08:48:55Z</time>
      </trkpt>
      <trkpt lat="44.62944" lon="4.97268">
        <ele>263.54</ele>
        <time>2021-12-15T08:48:56Z</time>
      </trkpt>
      <trkpt lat="44.6295" lon="4.97274">
        <ele>261.62</ele>
        <time>2021-12-15T08:49:04Z</time>
      </trkpt>
      <trkpt lat="44.62956" lon="4.97278">
        <ele>261.14</ele>
        <time>2021-12-15T08:49:15Z</time>
      </trkpt>
      <trkpt lat="44.6296" lon="4.9728">
        <ele>260.65</ele>
        <time>2021-12-15T08:49:20Z</time>
      </trkpt>
      <trkpt lat="44.62961" lon="4.97281">
        <ele>260.17</ele>
        <time>2021-12-15T08:49:21Z</time>
      </trkpt>
      <trkpt lat="44.62968" lon="4.97286">
        <ele>258.73</ele>
        <time>2021-12-15T08:49:33Z</time>
      </trkpt>
      <trkpt lat="44.6297" lon="4.97286">
        <ele>258.73</ele>
        <time>2021-12-15T08:49:34Z</time>
      </trkpt>
      <trkpt lat="44.62971" lon="4.97287">
        <ele>258.73</ele>
        <time>2021-12-15T08:49:35Z</time>
      </trkpt>
      <trkpt lat="44.6299" lon="4.97297">
        <ele>256.33</ele>
        <time>2021-12-15T08:49:55Z</time>
      </trkpt>
      <trkpt lat="44.63011" lon="4.97309">
        <ele>253.44</ele>
        <time>2021-12-15T08:50:16Z</time>
      </trkpt>
      <trkpt lat="44.63025" lon="4.97315">
        <ele>252</ele>
        <time>2021-12-15T08:50:30Z</time>
      </trkpt>
      <trkpt lat="44.63026" lon="4.97316">
        <ele>252</ele>
        <time>2021-12-15T08:50:31Z</time>
      </trkpt>
      <trkpt lat="44.63052" lon="4.97324">
        <ele>248.64</ele>
        <time>2021-12-15T08:50:55Z</time>
      </trkpt>
      <trkpt lat="44.63073" lon="4.97329">
        <ele>248.64</ele>
        <time>2021-12-15T08:51:15Z</time>
      </trkpt>
      <trkpt lat="44.63095" lon="4.97342">
        <ele>247.2</ele>
        <time>2021-12-15T08:51:38Z</time>
      </trkpt>
      <trkpt lat="44.63114" lon="4.9736">
        <ele>246.23</ele>
        <time>2021-12-15T08:52:00Z</time>
      </trkpt>
      <trkpt lat="44.63126" lon="4.97377">
        <ele>244.79</ele>
        <time>2021-12-15T08:52:18Z</time>
      </trkpt>
      <trkpt lat="44.63137" lon="4.97396">
        <ele>241.43</ele>
        <time>2021-12-15T08:52:36Z</time>
      </trkpt>
      <trkpt lat="44.63145" lon="4.97409">
        <ele>239.99</ele>
        <time>2021-12-15T08:52:48Z</time>
      </trkpt>
      <trkpt lat="44.63153" lon="4.97403">
        <ele>240.95</ele>
        <time>2021-12-15T08:53:04Z</time>
      </trkpt>
      <trkpt lat="44.63156" lon="4.97398">
        <ele>240.95</ele>
        <time>2021-12-15T08:53:11Z</time>
      </trkpt>
      <trkpt lat="44.63157" lon="4.97397">
        <ele>240.47</ele>
        <time>2021-12-15T08:53:12Z</time>
      </trkpt>
      <trkpt lat="44.63157" lon="4.97396">
        <ele>240.47</ele>
        <time>2021-12-15T08:53:13Z</time>
      </trkpt>
      <trkpt lat="44.63158" lon="4.97394">
        <ele>240.95</ele>
        <time>2021-12-15T08:53:14Z</time>
      </trkpt>
      <trkpt lat="44.63159" lon="4.97393">
        <ele>240.95</ele>
        <time>2021-12-15T08:53:15Z</time>
      </trkpt>
      <trkpt lat="44.6316" lon="4.97392">
        <ele>240.95</ele>
        <time>2021-12-15T08:53:16Z</time>
      </trkpt>
      <trkpt lat="44.6316" lon="4.97391">
        <ele>240.95</ele>
        <time>2021-12-15T08:53:17Z</time>
      </trkpt>
      <trkpt lat="44.63166" lon="4.97377">
        <ele>239.99</ele>
        <time>2021-12-15T08:53:27Z</time>
      </trkpt>
      <trkpt lat="44.63167" lon="4.97376">
        <ele>239.99</ele>
        <time>2021-12-15T08:53:28Z</time>
      </trkpt>
      <trkpt lat="44.63176" lon="4.97353">
        <ele>237.1</ele>
        <time>2021-12-15T08:53:46Z</time>
      </trkpt>
      <trkpt lat="44.63179" lon="4.97334">
        <ele>233.74</ele>
        <time>2021-12-15T08:54:02Z</time>
      </trkpt>
      <trkpt lat="44.63179" lon="4.97318">
        <ele>230.37</ele>
        <time>2021-12-15T08:54:15Z</time>
      </trkpt>
      <trkpt lat="44.63177" lon="4.97304">
        <ele>227.01</ele>
        <time>2021-12-15T08:54:28Z</time>
      </trkpt>
      <trkpt lat="44.63173" lon="4.97289">
        <ele>224.12</ele>
        <time>2021-12-15T08:54:42Z</time>
      </trkpt>
      <trkpt lat="44.63171" lon="4.97281">
        <ele>222.2</ele>
        <time>2021-12-15T08:54:57Z</time>
      </trkpt>
      <trkpt lat="44.6317" lon="4.97275">
        <ele>221.72</ele>
        <time>2021-12-15T08:55:09Z</time>
      </trkpt>
      <trkpt lat="44.6317" lon="4.97274">
        <ele>221.72</ele>
        <time>2021-12-15T08:55:10Z</time>
      </trkpt>
      <trkpt lat="44.63169" lon="4.97272">
        <ele>221.72</ele>
        <time>2021-12-15T08:55:11Z</time>
      </trkpt>
      <trkpt lat="44.63163" lon="4.97248">
        <ele>219.32</ele>
        <time>2021-12-15T08:55:32Z</time>
      </trkpt>
      <trkpt lat="44.6317" lon="4.97236">
        <ele>217.4</ele>
        <time>2021-12-15T08:55:49Z</time>
      </trkpt>
      <trkpt lat="44.63172" lon="4.97235">
        <ele>217.4</ele>
        <time>2021-12-15T08:55:51Z</time>
      </trkpt>
      <trkpt lat="44.63173" lon="4.97235">
        <ele>217.4</ele>
        <time>2021-12-15T08:55:52Z</time>
      </trkpt>
      <trkpt lat="44.63189" lon="4.97228">
        <ele>215.47</ele>
        <time>2021-12-15T08:56:09Z</time>
      </trkpt>
      <trkpt lat="44.63208" lon="4.97221">
        <ele>214.51</ele>
        <time>2021-12-15T08:56:27Z</time>
      </trkpt>
      <trkpt lat="44.63209" lon="4.9722">
        <ele>214.51</ele>
        <time>2021-12-15T08:56:28Z</time>
      </trkpt>
      <trkpt lat="44.6321" lon="4.9722">
        <ele>214.03</ele>
        <time>2021-12-15T08:56:29Z</time>
      </trkpt>
      <trkpt lat="44.63211" lon="4.9722">
        <ele>214.03</ele>
        <time>2021-12-15T08:56:30Z</time>
      </trkpt>
      <trkpt lat="44.63213" lon="4.97219">
        <ele>214.03</ele>
        <time>2021-12-15T08:56:31Z</time>
      </trkpt>
      <trkpt lat="44.63225" lon="4.97213">
        <ele>213.55</ele>
        <time>2021-12-15T08:56:44Z</time>
      </trkpt>
      <trkpt lat="44.63244" lon="4.97203">
        <ele>214.03</ele>
        <time>2021-12-15T08:57:03Z</time>
      </trkpt>
      <trkpt lat="44.63264" lon="4.97192">
        <ele>214.99</ele>
        <time>2021-12-15T08:57:23Z</time>
      </trkpt>
      <trkpt lat="44.63281" lon="4.97179">
        <ele>215.47</ele>
        <time>2021-12-15T08:57:40Z</time>
      </trkpt>
      <trkpt lat="44.633" lon="4.97163">
        <ele>214.99</ele>
        <time>2021-12-15T08:57:59Z</time>
      </trkpt>
      <trkpt lat="44.63317" lon="4.97149">
        <ele>214.51</ele>
        <time>2021-12-15T08:58:15Z</time>
      </trkpt>
      <trkpt lat="44.63339" lon="4.97144">
        <ele>214.51</ele>
        <time>2021-12-15T08:58:33Z</time>
      </trkpt>
      <trkpt lat="44.63357" lon="4.97148">
        <ele>214.99</ele>
        <time>2021-12-15T08:58:53Z</time>
      </trkpt>
      <trkpt lat="44.63361" lon="4.97149">
        <ele>215.47</ele>
        <time>2021-12-15T08:59:06Z</time>
      </trkpt>
      <trkpt lat="44.63378" lon="4.97152">
        <ele>214.99</ele>
        <time>2021-12-15T08:59:23Z</time>
      </trkpt>
      <trkpt lat="44.63395" lon="4.97156">
        <ele>215.47</ele>
        <time>2021-12-15T08:59:39Z</time>
      </trkpt>
      <trkpt lat="44.6342" lon="4.97164">
        <ele>217.4</ele>
        <time>2021-12-15T09:00:04Z</time>
      </trkpt>
      <trkpt lat="44.63438" lon="4.9717">
        <ele>218.36</ele>
        <time>2021-12-15T09:00:22Z</time>
      </trkpt>
      <trkpt lat="44.63453" lon="4.97175">
        <ele>219.32</ele>
        <time>2021-12-15T09:00:38Z</time>
      </trkpt>
      <trkpt lat="44.63471" lon="4.97181">
        <ele>220.28</ele>
        <time>2021-12-15T09:00:56Z</time>
      </trkpt>
      <trkpt lat="44.63487" lon="4.97187">
        <ele>220.76</ele>
        <time>2021-12-15T09:01:13Z</time>
      </trkpt>
      <trkpt lat="44.63506" lon="4.97193">
        <ele>220.76</ele>
        <time>2021-12-15T09:01:30Z</time>
      </trkpt>
      <trkpt lat="44.63528" lon="4.97198">
        <ele>221.24</ele>
        <time>2021-12-15T09:01:50Z</time>
      </trkpt>
      <trkpt lat="44.63554" lon="4.97204">
        <ele>221.24</ele>
        <time>2021-12-15T09:02:12Z</time>
      </trkpt>
      <trkpt lat="44.63574" lon="4.97209">
        <ele>222.2</ele>
        <time>2021-12-15T09:02:32Z</time>
      </trkpt>
      <trkpt lat="44.63585" lon="4.97216">
        <ele>220.76</ele>
        <time>2021-12-15T09:02:47Z</time>
      </trkpt>
      <trkpt lat="44.63587" lon="4.97215">
        <ele>221.24</ele>
        <time>2021-12-15T09:03:03Z</time>
      </trkpt>
      <trkpt lat="44.63591" lon="4.97218">
        <ele>221.72</ele>
        <time>2021-12-15T09:03:17Z</time>
      </trkpt>
      <trkpt lat="44.63597" lon="4.97221">
        <ele>222.2</ele>
        <time>2021-12-15T09:03:31Z</time>
      </trkpt>
      <trkpt lat="44.63598" lon="4.97221">
        <ele>222.2</ele>
        <time>2021-12-15T09:03:32Z</time>
      </trkpt>
      <trkpt lat="44.63602" lon="4.9722">
        <ele>222.68</ele>
        <time>2021-12-15T09:03:36Z</time>
      </trkpt>
      <trkpt lat="44.63617" lon="4.97215">
        <ele>224.61</ele>
        <time>2021-12-15T09:03:53Z</time>
      </trkpt>
      <trkpt lat="44.63627" lon="4.97215">
        <ele>226.05</ele>
        <time>2021-12-15T09:04:03Z</time>
      </trkpt>
      <trkpt lat="44.63642" lon="4.97217">
        <ele>227.97</ele>
        <time>2021-12-15T09:04:18Z</time>
      </trkpt>
      <trkpt lat="44.63647" lon="4.97218">
        <ele>228.45</ele>
        <time>2021-12-15T09:04:23Z</time>
      </trkpt>
      <trkpt lat="44.63658" lon="4.97223">
        <ele>228.93</ele>
        <time>2021-12-15T09:04:34Z</time>
      </trkpt>
      <trkpt lat="44.63665" lon="4.97226">
        <ele>229.41</ele>
        <time>2021-12-15T09:04:40Z</time>
      </trkpt>
      <trkpt lat="44.63666" lon="4.97226">
        <ele>229.41</ele>
        <time>2021-12-15T09:04:41Z</time>
      </trkpt>
      <trkpt lat="44.63667" lon="4.97227">
        <ele>229.41</ele>
        <time>2021-12-15T09:04:42Z</time>
      </trkpt>
      <trkpt lat="44.63683" lon="4.97232">
        <ele>230.37</ele>
        <time>2021-12-15T09:04:57Z</time>
      </trkpt>
      <trkpt lat="44.637" lon="4.97241">
        <ele>229.89</ele>
        <time>2021-12-15T09:05:12Z</time>
      </trkpt>
      <trkpt lat="44.63719" lon="4.97246">
        <ele>228.45</ele>
        <time>2021-12-15T09:05:29Z</time>
      </trkpt>
      <trkpt lat="44.63737" lon="4.97255">
        <ele>226.53</ele>
        <time>2021-12-15T09:05:45Z</time>
      </trkpt>
      <trkpt lat="44.63753" lon="4.97275">
        <ele>226.05</ele>
        <time>2021-12-15T09:06:02Z</time>
      </trkpt>
      <trkpt lat="44.63757" lon="4.97282">
        <ele>225.57</ele>
        <time>2021-12-15T09:06:19Z</time>
      </trkpt>
      <trkpt lat="44.63757" lon="4.97281">
        <ele>226.05</ele>
        <time>2021-12-15T09:06:45Z</time>
      </trkpt>
      <trkpt lat="44.63757" lon="4.97282">
        <ele>226.53</ele>
        <time>2021-12-15T09:07:09Z</time>
      </trkpt>
      <trkpt lat="44.63757" lon="4.97282">
        <ele>226.05</ele>
        <time>2021-12-15T09:07:31Z</time>
      </trkpt>
      <trkpt lat="44.63759" lon="4.97286">
        <ele>226.05</ele>
        <time>2021-12-15T09:07:50Z</time>
      </trkpt>
      <trkpt lat="44.6377" lon="4.97284">
        <ele>226.53</ele>
        <time>2021-12-15T09:08:07Z</time>
      </trkpt>
      <trkpt lat="44.63779" lon="4.9728">
        <ele>227.01</ele>
        <time>2021-12-15T09:08:24Z</time>
      </trkpt>
      <trkpt lat="44.6379" lon="4.97267">
        <ele>229.41</ele>
        <time>2021-12-15T09:08:43Z</time>
      </trkpt>
      <trkpt lat="44.63796" lon="4.97253">
        <ele>230.85</ele>
        <time>2021-12-15T09:09:02Z</time>
      </trkpt>
      <trkpt lat="44.63799" lon="4.97234">
        <ele>233.26</ele>
        <time>2021-12-15T09:09:24Z</time>
      </trkpt>
      <trkpt lat="44.63805" lon="4.97221">
        <ele>236.14</ele>
        <time>2021-12-15T09:09:45Z</time>
      </trkpt>
      <trkpt lat="44.6381" lon="4.97212">
        <ele>238.06</ele>
        <time>2021-12-15T09:10:00Z</time>
      </trkpt>
      <trkpt lat="44.63822" lon="4.97203">
        <ele>240.95</ele>
        <time>2021-12-15T09:10:21Z</time>
      </trkpt>
      <trkpt lat="44.63825" lon="4.97203">
        <ele>242.39</ele>
        <time>2021-12-15T09:10:25Z</time>
      </trkpt>
      <trkpt lat="44.63837" lon="4.97204">
        <ele>244.31</ele>
        <time>2021-12-15T09:10:44Z</time>
      </trkpt>
      <trkpt lat="44.63854" lon="4.97204">
        <ele>246.72</ele>
        <time>2021-12-15T09:11:08Z</time>
      </trkpt>
      <trkpt lat="44.63871" lon="4.97204">
        <ele>249.6</ele>
        <time>2021-12-15T09:11:30Z</time>
      </trkpt>
      <trkpt lat="44.6389" lon="4.97208">
        <ele>251.52</ele>
        <time>2021-12-15T09:11:50Z</time>
      </trkpt>
      <trkpt lat="44.63904" lon="4.97221">
        <ele>252.48</ele>
        <time>2021-12-15T09:12:07Z</time>
      </trkpt>
      <trkpt lat="44.63916" lon="4.97231">
        <ele>254.41</ele>
        <time>2021-12-15T09:12:29Z</time>
      </trkpt>
      <trkpt lat="44.63928" lon="4.97246">
        <ele>256.81</ele>
        <time>2021-12-15T09:12:53Z</time>
      </trkpt>
      <trkpt lat="44.63942" lon="4.97259">
        <ele>258.25</ele>
        <time>2021-12-15T09:13:15Z</time>
      </trkpt>
      <trkpt lat="44.63952" lon="4.97269">
        <ele>260.17</ele>
        <time>2021-12-15T09:13:37Z</time>
      </trkpt>
      <trkpt lat="44.63964" lon="4.97281">
        <ele>262.58</ele>
        <time>2021-12-15T09:14:01Z</time>
      </trkpt>
      <trkpt lat="44.63976" lon="4.97298">
        <ele>265.46</ele>
        <time>2021-12-15T09:14:26Z</time>
      </trkpt>
      <trkpt lat="44.63988" lon="4.97313">
        <ele>267.38</ele>
        <time>2021-12-15T09:14:49Z</time>
      </trkpt>
      <trkpt lat="44.63999" lon="4.97325">
        <ele>268.83</ele>
        <time>2021-12-15T09:15:05Z</time>
      </trkpt>
      <trkpt lat="44.64008" lon="4.97332">
        <ele>269.79</ele>
        <time>2021-12-15T09:15:21Z</time>
      </trkpt>
      <trkpt lat="44.64018" lon="4.97342">
        <ele>271.71</ele>
        <time>2021-12-15T09:15:40Z</time>
      </trkpt>
      <trkpt lat="44.64029" lon="4.9735">
        <ele>274.11</ele>
        <time>2021-12-15T09:16:00Z</time>
      </trkpt>
      <trkpt lat="44.64042" lon="4.97354">
        <ele>276.52</ele>
        <time>2021-12-15T09:16:25Z</time>
      </trkpt>
      <trkpt lat="44.64043" lon="4.97354">
        <ele>277.48</ele>
        <time>2021-12-15T09:16:49Z</time>
      </trkpt>
      <trkpt lat="44.64059" lon="4.97366">
        <ele>278.44</ele>
        <time>2021-12-15T09:17:13Z</time>
      </trkpt>
      <trkpt lat="44.64078" lon="4.97377">
        <ele>281.8</ele>
        <time>2021-12-15T09:17:38Z</time>
      </trkpt>
      <trkpt lat="44.64095" lon="4.97387">
        <ele>284.69</ele>
        <time>2021-12-15T09:18:02Z</time>
      </trkpt>
      <trkpt lat="44.64112" lon="4.97379">
        <ele>287.57</ele>
        <time>2021-12-15T09:18:25Z</time>
      </trkpt>
      <trkpt lat="44.64126" lon="4.9738">
        <ele>289.97</ele>
        <time>2021-12-15T09:18:46Z</time>
      </trkpt>
      <trkpt lat="44.64143" lon="4.9739">
        <ele>293.34</ele>
        <time>2021-12-15T09:19:14Z</time>
      </trkpt>
      <trkpt lat="44.64154" lon="4.97401">
        <ele>295.74</ele>
        <time>2021-12-15T09:19:39Z</time>
      </trkpt>
      <trkpt lat="44.64167" lon="4.97411">
        <ele>298.63</ele>
        <time>2021-12-15T09:20:04Z</time>
      </trkpt>
      <trkpt lat="44.64182" lon="4.97424">
        <ele>301.51</ele>
        <time>2021-12-15T09:20:29Z</time>
      </trkpt>
      <trkpt lat="44.64192" lon="4.97433">
        <ele>303.43</ele>
        <time>2021-12-15T09:20:48Z</time>
      </trkpt>
      <trkpt lat="44.64206" lon="4.97446">
        <ele>306.8</ele>
        <time>2021-12-15T09:21:17Z</time>
      </trkpt>
      <trkpt lat="44.64216" lon="4.97452">
        <ele>308.24</ele>
        <time>2021-12-15T09:21:39Z</time>
      </trkpt>
      <trkpt lat="44.6423" lon="4.97462">
        <ele>311.6</ele>
        <time>2021-12-15T09:22:05Z</time>
      </trkpt>
      <trkpt lat="44.64245" lon="4.9747">
        <ele>314.49</ele>
        <time>2021-12-15T09:22:30Z</time>
      </trkpt>
      <trkpt lat="44.64259" lon="4.97464">
        <ele>317.37</ele>
        <time>2021-12-15T09:22:53Z</time>
      </trkpt>
      <trkpt lat="44.64273" lon="4.97459">
        <ele>320.26</ele>
        <time>2021-12-15T09:23:18Z</time>
      </trkpt>
      <trkpt lat="44.64285" lon="4.97455">
        <ele>323.62</ele>
        <time>2021-12-15T09:23:37Z</time>
      </trkpt>
      <trkpt lat="44.64299" lon="4.97453">
        <ele>326.02</ele>
        <time>2021-12-15T09:23:58Z</time>
      </trkpt>
      <trkpt lat="44.64312" lon="4.97454">
        <ele>328.91</ele>
        <time>2021-12-15T09:24:22Z</time>
      </trkpt>
      <trkpt lat="44.64326" lon="4.97458">
        <ele>331.79</ele>
        <time>2021-12-15T09:24:45Z</time>
      </trkpt>
      <trkpt lat="44.64341" lon="4.97459">
        <ele>335.16</ele>
        <time>2021-12-15T09:25:10Z</time>
      </trkpt>
      <trkpt lat="44.64358" lon="4.9746">
        <ele>337.56</ele>
        <time>2021-12-15T09:25:33Z</time>
      </trkpt>
      <trkpt lat="44.64372" lon="4.97451">
        <ele>340.44</ele>
        <time>2021-12-15T09:25:57Z</time>
      </trkpt>
      <trkpt lat="44.64385" lon="4.97449">
        <ele>343.33</ele>
        <time>2021-12-15T09:26:22Z</time>
      </trkpt>
      <trkpt lat="44.64395" lon="4.97443">
        <ele>346.69</ele>
        <time>2021-12-15T09:26:45Z</time>
      </trkpt>
      <trkpt lat="44.64401" lon="4.97435">
        <ele>349.58</ele>
        <time>2021-12-15T09:27:05Z</time>
      </trkpt>
      <trkpt lat="44.6441" lon="4.97428">
        <ele>351.98</ele>
        <time>2021-12-15T09:27:23Z</time>
      </trkpt>
      <trkpt lat="44.64416" lon="4.97422">
        <ele>354.38</ele>
        <time>2021-12-15T09:27:45Z</time>
      </trkpt>
      <trkpt lat="44.64422" lon="4.97418">
        <ele>357.75</ele>
        <time>2021-12-15T09:28:07Z</time>
      </trkpt>
      <trkpt lat="44.64429" lon="4.97413">
        <ele>360.63</ele>
        <time>2021-12-15T09:28:26Z</time>
      </trkpt>
      <trkpt lat="44.64434" lon="4.97408">
        <ele>363.04</ele>
        <time>2021-12-15T09:28:44Z</time>
      </trkpt>
      <trkpt lat="44.64442" lon="4.97404">
        <ele>365.92</ele>
        <time>2021-12-15T09:29:04Z</time>
      </trkpt>
      <trkpt lat="44.6445" lon="4.974">
        <ele>368.8</ele>
        <time>2021-12-15T09:29:27Z</time>
      </trkpt>
      <trkpt lat="44.64459" lon="4.97401">
        <ele>371.21</ele>
        <time>2021-12-15T09:29:44Z</time>
      </trkpt>
      <trkpt lat="44.64465" lon="4.97407">
        <ele>371.69</ele>
        <time>2021-12-15T09:29:57Z</time>
      </trkpt>
      <trkpt lat="44.64473" lon="4.97407">
        <ele>373.61</ele>
        <time>2021-12-15T09:30:11Z</time>
      </trkpt>
      <trkpt lat="44.64484" lon="4.97405">
        <ele>376.97</ele>
        <time>2021-12-15T09:30:33Z</time>
      </trkpt>
      <trkpt lat="44.64499" lon="4.97398">
        <ele>379.38</ele>
        <time>2021-12-15T09:30:56Z</time>
      </trkpt>
      <trkpt lat="44.64505" lon="4.97394">
        <ele>381.3</ele>
        <time>2021-12-15T09:31:17Z</time>
      </trkpt>
      <trkpt lat="44.64509" lon="4.97392">
        <ele>382.26</ele>
        <time>2021-12-15T09:31:39Z</time>
      </trkpt>
      <trkpt lat="44.64509" lon="4.97392">
        <ele>382.74</ele>
        <time>2021-12-15T09:32:08Z</time>
      </trkpt>
      <trkpt lat="44.64509" lon="4.97392">
        <ele>382.26</ele>
        <time>2021-12-15T09:32:53Z</time>
      </trkpt>
      <trkpt lat="44.6451" lon="4.97392">
        <ele>382.26</ele>
        <time>2021-12-15T09:33:27Z</time>
      </trkpt>
      <trkpt lat="44.64508" lon="4.97391">
        <ele>382.26</ele>
        <time>2021-12-15T09:34:01Z</time>
      </trkpt>
      <trkpt lat="44.6451" lon="4.97391">
        <ele>382.26</ele>
        <time>2021-12-15T09:34:41Z</time>
      </trkpt>
      <trkpt lat="44.6451" lon="4.97391">
        <ele>382.26</ele>
        <time>2021-12-15T09:35:06Z</time>
      </trkpt>
      <trkpt lat="44.6451" lon="4.9739">
        <ele>382.26</ele>
        <time>2021-12-15T09:35:37Z</time>
      </trkpt>
      <trkpt lat="44.6451" lon="4.9739">
        <ele>382.26</ele>
        <time>2021-12-15T09:36:07Z</time>
      </trkpt>
      <trkpt lat="44.6451" lon="4.9739">
        <ele>382.26</ele>
        <time>2021-12-15T09:36:44Z</time>
      </trkpt>
      <trkpt lat="44.6451" lon="4.9739">
        <ele>382.26</ele>
        <time>2021-12-15T09:37:36Z</time>
      </trkpt>
      <trkpt lat="44.6451" lon="4.9739">
        <ele>382.26</ele>
        <time>2021-12-15T09:38:19Z</time>
      </trkpt>
      <trkpt lat="44.64515" lon="4.97389">
        <ele>382.26</ele>
        <time>2021-12-15T09:38:43Z</time>
      </trkpt>
      <trkpt lat="44.64518" lon="4.97389">
        <ele>382.26</ele>
        <time>2021-12-15T09:39:01Z</time>
      </trkpt>
      <trkpt lat="44.64528" lon="4.97387">
        <ele>382.26</ele>
        <time>2021-12-15T09:39:20Z</time>
      </trkpt>
      <trkpt lat="44.64542" lon="4.97385">
        <ele>382.26</ele>
        <time>2021-12-15T09:39:43Z</time>
      </trkpt>
      <trkpt lat="44.64546" lon="4.97383">
        <ele>386.59</ele>
        <time>2021-12-15T09:39:48Z</time>
      </trkpt>
      <trkpt lat="44.64547" lon="4.97383">
        <ele>386.59</ele>
        <time>2021-12-15T09:39:49Z</time>
      </trkpt>
      <trkpt lat="44.64568" lon="4.97377">
        <ele>387.55</ele>
        <time>2021-12-15T09:40:16Z</time>
      </trkpt>
      <trkpt lat="44.64589" lon="4.97376">
        <ele>388.99</ele>
        <time>2021-12-15T09:40:40Z</time>
      </trkpt>
      <trkpt lat="44.64606" lon="4.97365">
        <ele>388.99</ele>
        <time>2021-12-15T09:41:03Z</time>
      </trkpt>
      <trkpt lat="44.6462" lon="4.97348">
        <ele>391.39</ele>
        <time>2021-12-15T09:41:25Z</time>
      </trkpt>
      <trkpt lat="44.6463" lon="4.97333">
        <ele>392.84</ele>
        <time>2021-12-15T09:41:45Z</time>
      </trkpt>
      <trkpt lat="44.64646" lon="4.9732">
        <ele>394.28</ele>
        <time>2021-12-15T09:42:08Z</time>
      </trkpt>
      <trkpt lat="44.64661" lon="4.97311">
        <ele>396.68</ele>
        <time>2021-12-15T09:42:27Z</time>
      </trkpt>
      <trkpt lat="44.64672" lon="4.973">
        <ele>398.12</ele>
        <time>2021-12-15T09:42:47Z</time>
      </trkpt>
      <trkpt lat="44.64675" lon="4.97298">
        <ele>398.6</ele>
        <time>2021-12-15T09:43:10Z</time>
      </trkpt>
      <trkpt lat="44.64684" lon="4.97303">
        <ele>398.6</ele>
        <time>2021-12-15T09:43:25Z</time>
      </trkpt>
      <trkpt lat="44.64688" lon="4.97305">
        <ele>399.57</ele>
        <time>2021-12-15T09:43:42Z</time>
      </trkpt>
      <trkpt lat="44.64698" lon="4.97311">
        <ele>400.53</ele>
        <time>2021-12-15T09:44:02Z</time>
      </trkpt>
      <trkpt lat="44.64701" lon="4.97311">
        <ele>400.53</ele>
        <time>2021-12-15T09:44:05Z</time>
      </trkpt>
      <trkpt lat="44.64713" lon="4.97316">
        <ele>402.45</ele>
        <time>2021-12-15T09:44:21Z</time>
      </trkpt>
      <trkpt lat="44.64716" lon="4.97316">
        <ele>402.93</ele>
        <time>2021-12-15T09:44:27Z</time>
      </trkpt>
      <trkpt lat="44.64718" lon="4.97317">
        <ele>402.93</ele>
        <time>2021-12-15T09:44:29Z</time>
      </trkpt>
      <trkpt lat="44.64719" lon="4.97317">
        <ele>402.93</ele>
        <time>2021-12-15T09:44:30Z</time>
      </trkpt>
      <trkpt lat="44.64733" lon="4.97322">
        <ele>403.89</ele>
        <time>2021-12-15T09:44:45Z</time>
      </trkpt>
      <trkpt lat="44.64743" lon="4.97321">
        <ele>404.85</ele>
        <time>2021-12-15T09:44:59Z</time>
      </trkpt>
      <trkpt lat="44.64754" lon="4.97323">
        <ele>407.26</ele>
        <time>2021-12-15T09:45:16Z</time>
      </trkpt>
      <trkpt lat="44.64764" lon="4.97328">
        <ele>409.18</ele>
        <time>2021-12-15T09:45:32Z</time>
      </trkpt>
      <trkpt lat="44.64778" lon="4.97334">
        <ele>411.58</ele>
        <time>2021-12-15T09:45:53Z</time>
      </trkpt>
      <trkpt lat="44.64791" lon="4.97343">
        <ele>413.5</ele>
        <time>2021-12-15T09:46:11Z</time>
      </trkpt>
      <trkpt lat="44.64798" lon="4.97347">
        <ele>414.47</ele>
        <time>2021-12-15T09:46:19Z</time>
      </trkpt>
      <trkpt lat="44.6481" lon="4.97356">
        <ele>415.43</ele>
        <time>2021-12-15T09:46:36Z</time>
      </trkpt>
      <trkpt lat="44.64825" lon="4.97365">
        <ele>415.91</ele>
        <time>2021-12-15T09:46:54Z</time>
      </trkpt>
      <trkpt lat="44.64841" lon="4.97371">
        <ele>417.83</ele>
        <time>2021-12-15T09:47:16Z</time>
      </trkpt>
      <trkpt lat="44.64857" lon="4.97378">
        <ele>419.27</ele>
        <time>2021-12-15T09:47:38Z</time>
      </trkpt>
      <trkpt lat="44.64872" lon="4.97383">
        <ele>421.19</ele>
        <time>2021-12-15T09:48:01Z</time>
      </trkpt>
      <trkpt lat="44.64889" lon="4.97385">
        <ele>423.6</ele>
        <time>2021-12-15T09:48:24Z</time>
      </trkpt>
      <trkpt lat="44.64906" lon="4.97393">
        <ele>424.56</ele>
        <time>2021-12-15T09:48:45Z</time>
      </trkpt>
      <trkpt lat="44.64925" lon="4.97403">
        <ele>426</ele>
        <time>2021-12-15T09:49:11Z</time>
      </trkpt>
      <trkpt lat="44.64926" lon="4.97404">
        <ele>426</ele>
        <time>2021-12-15T09:49:12Z</time>
      </trkpt>
      <trkpt lat="44.64938" lon="4.97401">
        <ele>425.52</ele>
        <time>2021-12-15T09:49:30Z</time>
      </trkpt>
      <trkpt lat="44.64958" lon="4.974">
        <ele>425.52</ele>
        <time>2021-12-15T09:49:54Z</time>
      </trkpt>
      <trkpt lat="44.64981" lon="4.97399">
        <ele>426</ele>
        <time>2021-12-15T09:50:18Z</time>
      </trkpt>
      <trkpt lat="44.65002" lon="4.97399">
        <ele>425.04</ele>
        <time>2021-12-15T09:50:44Z</time>
      </trkpt>
      <trkpt lat="44.65023" lon="4.97404">
        <ele>423.12</ele>
        <time>2021-12-15T09:51:06Z</time>
      </trkpt>
      <trkpt lat="44.65046" lon="4.97402">
        <ele>422.64</ele>
        <time>2021-12-15T09:51:32Z</time>
      </trkpt>
      <trkpt lat="44.65063" lon="4.97396">
        <ele>421.19</ele>
        <time>2021-12-15T09:51:52Z</time>
      </trkpt>
      <trkpt lat="44.65074" lon="4.97389">
        <ele>421.19</ele>
        <time>2021-12-15T09:52:10Z</time>
      </trkpt>
      <trkpt lat="44.6508" lon="4.97384">
        <ele>420.71</ele>
        <time>2021-12-15T09:52:27Z</time>
      </trkpt>
      <trkpt lat="44.65091" lon="4.97382">
        <ele>420.23</ele>
        <time>2021-12-15T09:52:43Z</time>
      </trkpt>
      <trkpt lat="44.65109" lon="4.97378">
        <ele>421.68</ele>
        <time>2021-12-15T09:53:07Z</time>
      </trkpt>
      <trkpt lat="44.65124" lon="4.97374">
        <ele>422.64</ele>
        <time>2021-12-15T09:53:27Z</time>
      </trkpt>
      <trkpt lat="44.65133" lon="4.97374">
        <ele>422.16</ele>
        <time>2021-12-15T09:53:43Z</time>
      </trkpt>
      <trkpt lat="44.65141" lon="4.9737">
        <ele>422.16</ele>
        <time>2021-12-15T09:54:00Z</time>
      </trkpt>
      <trkpt lat="44.65146" lon="4.97367">
        <ele>421.68</ele>
        <time>2021-12-15T09:54:16Z</time>
      </trkpt>
      <trkpt lat="44.65152" lon="4.97368">
        <ele>420.71</ele>
        <time>2021-12-15T09:54:24Z</time>
      </trkpt>
      <trkpt lat="44.65161" lon="4.97367">
        <ele>421.19</ele>
        <time>2021-12-15T09:54:39Z</time>
      </trkpt>
      <trkpt lat="44.65177" lon="4.97365">
        <ele>422.64</ele>
        <time>2021-12-15T09:54:56Z</time>
      </trkpt>
      <trkpt lat="44.65195" lon="4.97362">
        <ele>423.6</ele>
        <time>2021-12-15T09:55:14Z</time>
      </trkpt>
      <trkpt lat="44.65212" lon="4.97358">
        <ele>422.64</ele>
        <time>2021-12-15T09:55:33Z</time>
      </trkpt>
      <trkpt lat="44.65214" lon="4.97357">
        <ele>422.64</ele>
        <time>2021-12-15T09:55:38Z</time>
      </trkpt>
      <trkpt lat="44.65216" lon="4.97356">
        <ele>422.64</ele>
        <time>2021-12-15T09:55:40Z</time>
      </trkpt>
      <trkpt lat="44.65217" lon="4.97356">
        <ele>422.16</ele>
        <time>2021-12-15T09:55:41Z</time>
      </trkpt>
      <trkpt lat="44.65218" lon="4.97355">
        <ele>422.16</ele>
        <time>2021-12-15T09:55:42Z</time>
      </trkpt>
      <trkpt lat="44.65219" lon="4.97355">
        <ele>421.68</ele>
        <time>2021-12-15T09:55:43Z</time>
      </trkpt>
      <trkpt lat="44.6522" lon="4.97354">
        <ele>421.19</ele>
        <time>2021-12-15T09:55:44Z</time>
      </trkpt>
      <trkpt lat="44.65221" lon="4.97354">
        <ele>420.71</ele>
        <time>2021-12-15T09:55:45Z</time>
      </trkpt>
      <trkpt lat="44.65225" lon="4.9735">
        <ele>421.68</ele>
        <time>2021-12-15T09:55:55Z</time>
      </trkpt>
      <trkpt lat="44.65226" lon="4.97349">
        <ele>421.68</ele>
        <time>2021-12-15T09:55:56Z</time>
      </trkpt>
      <trkpt lat="44.65227" lon="4.97349">
        <ele>421.68</ele>
        <time>2021-12-15T09:55:57Z</time>
      </trkpt>
      <trkpt lat="44.65228" lon="4.97348">
        <ele>421.19</ele>
        <time>2021-12-15T09:55:58Z</time>
      </trkpt>
      <trkpt lat="44.6523" lon="4.97348">
        <ele>421.19</ele>
        <time>2021-12-15T09:55:59Z</time>
      </trkpt>
      <trkpt lat="44.65231" lon="4.97347">
        <ele>421.19</ele>
        <time>2021-12-15T09:56:00Z</time>
      </trkpt>
      <trkpt lat="44.65232" lon="4.97347">
        <ele>421.19</ele>
        <time>2021-12-15T09:56:01Z</time>
      </trkpt>
      <trkpt lat="44.65233" lon="4.97346">
        <ele>421.19</ele>
        <time>2021-12-15T09:56:02Z</time>
      </trkpt>
      <trkpt lat="44.6524" lon="4.97341">
        <ele>421.19</ele>
        <time>2021-12-15T09:56:12Z</time>
      </trkpt>
      <trkpt lat="44.65241" lon="4.97341">
        <ele>421.19</ele>
        <time>2021-12-15T09:56:13Z</time>
      </trkpt>
      <trkpt lat="44.65242" lon="4.9734">
        <ele>421.19</ele>
        <time>2021-12-15T09:56:14Z</time>
      </trkpt>
      <trkpt lat="44.65243" lon="4.97339">
        <ele>421.19</ele>
        <time>2021-12-15T09:56:15Z</time>
      </trkpt>
      <trkpt lat="44.65244" lon="4.97338">
        <ele>421.19</ele>
        <time>2021-12-15T09:56:16Z</time>
      </trkpt>
      <trkpt lat="44.65257" lon="4.97324">
        <ele>422.64</ele>
        <time>2021-12-15T09:56:29Z</time>
      </trkpt>
      <trkpt lat="44.65271" lon="4.97296">
        <ele>423.6</ele>
        <time>2021-12-15T09:56:48Z</time>
      </trkpt>
      <trkpt lat="44.6528" lon="4.97274">
        <ele>420.71</ele>
        <time>2021-12-15T09:57:03Z</time>
      </trkpt>
      <trkpt lat="44.65291" lon="4.97244">
        <ele>418.79</ele>
        <time>2021-12-15T09:57:24Z</time>
      </trkpt>
      <trkpt lat="44.65307" lon="4.97214">
        <ele>417.83</ele>
        <time>2021-12-15T09:57:49Z</time>
      </trkpt>
      <trkpt lat="44.65321" lon="4.972">
        <ele>416.87</ele>
        <time>2021-12-15T09:58:05Z</time>
      </trkpt>
      <trkpt lat="44.65322" lon="4.97201">
        <ele>416.39</ele>
        <time>2021-12-15T09:58:06Z</time>
      </trkpt>
      <trkpt lat="44.65323" lon="4.97201">
        <ele>416.39</ele>
        <time>2021-12-15T09:58:07Z</time>
      </trkpt>
      <trkpt lat="44.65324" lon="4.97201">
        <ele>415.43</ele>
        <time>2021-12-15T09:58:08Z</time>
      </trkpt>
      <trkpt lat="44.65326" lon="4.97201">
        <ele>415.43</ele>
        <time>2021-12-15T09:58:09Z</time>
      </trkpt>
      <trkpt lat="44.65327" lon="4.97201">
        <ele>415.43</ele>
        <time>2021-12-15T09:58:10Z</time>
      </trkpt>
      <trkpt lat="44.65335" lon="4.972">
        <ele>413.02</ele>
        <time>2021-12-15T09:58:26Z</time>
      </trkpt>
      <trkpt lat="44.65335" lon="4.972">
        <ele>416.39</ele>
        <time>2021-12-15T09:58:30Z</time>
      </trkpt>
      <trkpt lat="44.65337" lon="4.97199">
        <ele>417.35</ele>
        <time>2021-12-15T09:58:34Z</time>
      </trkpt>
      <trkpt lat="44.65338" lon="4.97199">
        <ele>416.87</ele>
        <time>2021-12-15T09:58:35Z</time>
      </trkpt>
      <trkpt lat="44.65339" lon="4.97199">
        <ele>416.39</ele>
        <time>2021-12-15T09:58:36Z</time>
      </trkpt>
      <trkpt lat="44.6534" lon="4.97199">
        <ele>416.39</ele>
        <time>2021-12-15T09:58:37Z</time>
      </trkpt>
      <trkpt lat="44.65341" lon="4.97198">
        <ele>415.43</ele>
        <time>2021-12-15T09:58:38Z</time>
      </trkpt>
      <trkpt lat="44.65342" lon="4.97198">
        <ele>414.95</ele>
        <time>2021-12-15T09:58:39Z</time>
      </trkpt>
      <trkpt lat="44.65343" lon="4.97198">
        <ele>413.98</ele>
        <time>2021-12-15T09:58:40Z</time>
      </trkpt>
      <trkpt lat="44.65368" lon="4.97198">
        <ele>411.58</ele>
        <time>2021-12-15T09:59:00Z</time>
      </trkpt>
      <trkpt lat="44.65393" lon="4.97202">
        <ele>411.58</ele>
        <time>2021-12-15T09:59:17Z</time>
      </trkpt>
      <trkpt lat="44.65413" lon="4.97208">
        <ele>410.14</ele>
        <time>2021-12-15T09:59:32Z</time>
      </trkpt>
      <trkpt lat="44.65415" lon="4.97207">
        <ele>410.62</ele>
        <time>2021-12-15T09:59:43Z</time>
      </trkpt>
      <trkpt lat="44.65415" lon="4.97207">
        <ele>410.62</ele>
        <time>2021-12-15T10:00:02Z</time>
      </trkpt>
      <trkpt lat="44.65415" lon="4.97207">
        <ele>410.62</ele>
        <time>2021-12-15T10:00:31Z</time>
      </trkpt>
      <trkpt lat="44.65415" lon="4.97207">
        <ele>410.62</ele>
        <time>2021-12-15T10:01:02Z</time>
      </trkpt>
      <trkpt lat="44.65415" lon="4.97207">
        <ele>410.62</ele>
        <time>2021-12-15T10:01:30Z</time>
      </trkpt>
      <trkpt lat="44.6542" lon="4.97208">
        <ele>410.62</ele>
        <time>2021-12-15T10:01:54Z</time>
      </trkpt>
      <trkpt lat="44.65426" lon="4.97208">
        <ele>409.18</ele>
        <time>2021-12-15T10:02:02Z</time>
      </trkpt>
      <trkpt lat="44.65438" lon="4.97211">
        <ele>408.22</ele>
        <time>2021-12-15T10:02:17Z</time>
      </trkpt>
      <trkpt lat="44.65454" lon="4.97216">
        <ele>407.26</ele>
        <time>2021-12-15T10:02:32Z</time>
      </trkpt>
      <trkpt lat="44.65473" lon="4.97222">
        <ele>406.29</ele>
        <time>2021-12-15T10:02:50Z</time>
      </trkpt>
      <trkpt lat="44.65489" lon="4.97222">
        <ele>405.33</ele>
        <time>2021-12-15T10:03:07Z</time>
      </trkpt>
      <trkpt lat="44.65508" lon="4.97223">
        <ele>403.89</ele>
        <time>2021-12-15T10:03:25Z</time>
      </trkpt>
      <trkpt lat="44.6553" lon="4.97228">
        <ele>402.93</ele>
        <time>2021-12-15T10:03:44Z</time>
      </trkpt>
      <trkpt lat="44.65549" lon="4.97229">
        <ele>401.49</ele>
        <time>2021-12-15T10:04:02Z</time>
      </trkpt>
      <trkpt lat="44.6555" lon="4.97229">
        <ele>401.49</ele>
        <time>2021-12-15T10:04:03Z</time>
      </trkpt>
      <trkpt lat="44.65551" lon="4.97229">
        <ele>401.49</ele>
        <time>2021-12-15T10:04:04Z</time>
      </trkpt>
      <trkpt lat="44.65553" lon="4.97229">
        <ele>401.49</ele>
        <time>2021-12-15T10:04:05Z</time>
      </trkpt>
      <trkpt lat="44.65554" lon="4.97229">
        <ele>401.01</ele>
        <time>2021-12-15T10:04:06Z</time>
      </trkpt>
      <trkpt lat="44.65573" lon="4.97228">
        <ele>400.05</ele>
        <time>2021-12-15T10:04:24Z</time>
      </trkpt>
      <trkpt lat="44.65591" lon="4.97226">
        <ele>398.6</ele>
        <time>2021-12-15T10:04:41Z</time>
      </trkpt>
      <trkpt lat="44.65616" lon="4.97226">
        <ele>396.68</ele>
        <time>2021-12-15T10:05:03Z</time>
      </trkpt>
      <trkpt lat="44.65634" lon="4.97225">
        <ele>396.68</ele>
        <time>2021-12-15T10:05:22Z</time>
      </trkpt>
      <trkpt lat="44.65641" lon="4.97222">
        <ele>396.2</ele>
        <time>2021-12-15T10:05:31Z</time>
      </trkpt>
      <trkpt lat="44.65642" lon="4.97222">
        <ele>396.2</ele>
        <time>2021-12-15T10:05:32Z</time>
      </trkpt>
      <trkpt lat="44.65643" lon="4.9722">
        <ele>396.2</ele>
        <time>2021-12-15T10:05:44Z</time>
      </trkpt>
      <trkpt lat="44.65653" lon="4.97217">
        <ele>395.24</ele>
        <time>2021-12-15T10:06:03Z</time>
      </trkpt>
      <trkpt lat="44.65653" lon="4.97217">
        <ele>396.2</ele>
        <time>2021-12-15T10:06:33Z</time>
      </trkpt>
      <trkpt lat="44.65652" lon="4.97216">
        <ele>396.2</ele>
        <time>2021-12-15T10:07:01Z</time>
      </trkpt>
      <trkpt lat="44.65651" lon="4.97215">
        <ele>396.2</ele>
        <time>2021-12-15T10:07:06Z</time>
      </trkpt>
      <trkpt lat="44.6565" lon="4.97215">
        <ele>396.2</ele>
        <time>2021-12-15T10:07:07Z</time>
      </trkpt>
      <trkpt lat="44.65649" lon="4.97215">
        <ele>396.2</ele>
        <time>2021-12-15T10:07:08Z</time>
      </trkpt>
      <trkpt lat="44.65642" lon="4.97217">
        <ele>395.72</ele>
        <time>2021-12-15T10:07:21Z</time>
      </trkpt>
      <trkpt lat="44.65646" lon="4.97216">
        <ele>395.72</ele>
        <time>2021-12-15T10:07:57Z</time>
      </trkpt>
      <trkpt lat="44.65647" lon="4.97215">
        <ele>395.72</ele>
        <time>2021-12-15T10:08:06Z</time>
      </trkpt>
      <trkpt lat="44.65649" lon="4.97215">
        <ele>395.72</ele>
        <time>2021-12-15T10:08:07Z</time>
      </trkpt>
      <trkpt lat="44.65652" lon="4.97212">
        <ele>395.72</ele>
        <time>2021-12-15T10:08:10Z</time>
      </trkpt>
      <trkpt lat="44.65652" lon="4.97211">
        <ele>395.72</ele>
        <time>2021-12-15T10:08:11Z</time>
      </trkpt>
      <trkpt lat="44.65653" lon="4.97209">
        <ele>395.72</ele>
        <time>2021-12-15T10:08:12Z</time>
      </trkpt>
      <trkpt lat="44.65653" lon="4.97207">
        <ele>395.72</ele>
        <time>2021-12-15T10:08:13Z</time>
      </trkpt>
      <trkpt lat="44.65652" lon="4.97205">
        <ele>395.72</ele>
        <time>2021-12-15T10:08:14Z</time>
      </trkpt>
      <trkpt lat="44.65652" lon="4.97203">
        <ele>395.72</ele>
        <time>2021-12-15T10:08:15Z</time>
      </trkpt>
      <trkpt lat="44.65643" lon="4.97159">
        <ele>393.8</ele>
        <time>2021-12-15T10:08:33Z</time>
      </trkpt>
      <trkpt lat="44.65637" lon="4.97108">
        <ele>392.84</ele>
        <time>2021-12-15T10:08:52Z</time>
      </trkpt>
      <trkpt lat="44.65638" lon="4.97062">
        <ele>393.32</ele>
        <time>2021-12-15T10:09:11Z</time>
      </trkpt>
      <trkpt lat="44.65645" lon="4.97035">
        <ele>392.84</ele>
        <time>2021-12-15T10:09:29Z</time>
      </trkpt>
      <trkpt lat="44.65646" lon="4.97028">
        <ele>393.32</ele>
        <time>2021-12-15T10:09:34Z</time>
      </trkpt>
      <trkpt lat="44.65648" lon="4.97024">
        <ele>393.8</ele>
        <time>2021-12-15T10:09:37Z</time>
      </trkpt>
      <trkpt lat="44.65653" lon="4.97001">
        <ele>393.8</ele>
        <time>2021-12-15T10:09:52Z</time>
      </trkpt>
      <trkpt lat="44.65657" lon="4.96974">
        <ele>391.87</ele>
        <time>2021-12-15T10:10:10Z</time>
      </trkpt>
      <trkpt lat="44.6566" lon="4.96945">
        <ele>391.87</ele>
        <time>2021-12-15T10:10:28Z</time>
      </trkpt>
      <trkpt lat="44.65665" lon="4.96915">
        <ele>392.36</ele>
        <time>2021-12-15T10:10:47Z</time>
      </trkpt>
      <trkpt lat="44.65671" lon="4.96885">
        <ele>392.84</ele>
        <time>2021-12-15T10:11:06Z</time>
      </trkpt>
      <trkpt lat="44.65674" lon="4.96855">
        <ele>392.36</ele>
        <time>2021-12-15T10:11:26Z</time>
      </trkpt>
      <trkpt lat="44.65668" lon="4.96834">
        <ele>392.84</ele>
        <time>2021-12-15T10:11:41Z</time>
      </trkpt>
      <trkpt lat="44.65674" lon="4.96807">
        <ele>393.32</ele>
        <time>2021-12-15T10:11:59Z</time>
      </trkpt>
      <trkpt lat="44.65683" lon="4.96779">
        <ele>392.84</ele>
        <time>2021-12-15T10:12:18Z</time>
      </trkpt>
      <trkpt lat="44.65692" lon="4.96748">
        <ele>392.36</ele>
        <time>2021-12-15T10:12:40Z</time>
      </trkpt>
      <trkpt lat="44.65702" lon="4.96718">
        <ele>392.84</ele>
        <time>2021-12-15T10:13:02Z</time>
      </trkpt>
      <trkpt lat="44.65713" lon="4.96687">
        <ele>393.32</ele>
        <time>2021-12-15T10:13:25Z</time>
      </trkpt>
      <trkpt lat="44.65719" lon="4.96668">
        <ele>394.76</ele>
        <time>2021-12-15T10:13:41Z</time>
      </trkpt>
      <trkpt lat="44.65718" lon="4.96645">
        <ele>395.24</ele>
        <time>2021-12-15T10:13:58Z</time>
      </trkpt>
      <trkpt lat="44.65717" lon="4.96644">
        <ele>395.24</ele>
        <time>2021-12-15T10:13:59Z</time>
      </trkpt>
      <trkpt lat="44.657" lon="4.9663">
        <ele>395.24</ele>
        <time>2021-12-15T10:14:17Z</time>
      </trkpt>
      <trkpt lat="44.65679" lon="4.96611">
        <ele>395.24</ele>
        <time>2021-12-15T10:14:41Z</time>
      </trkpt>
      <trkpt lat="44.65678" lon="4.9661">
        <ele>395.24</ele>
        <time>2021-12-15T10:14:42Z</time>
      </trkpt>
      <trkpt lat="44.65677" lon="4.96609">
        <ele>395.24</ele>
        <time>2021-12-15T10:14:43Z</time>
      </trkpt>
      <trkpt lat="44.65676" lon="4.96608">
        <ele>395.24</ele>
        <time>2021-12-15T10:14:44Z</time>
      </trkpt>
      <trkpt lat="44.65675" lon="4.96607">
        <ele>395.24</ele>
        <time>2021-12-15T10:14:45Z</time>
      </trkpt>
      <trkpt lat="44.65674" lon="4.96606">
        <ele>395.24</ele>
        <time>2021-12-15T10:14:46Z</time>
      </trkpt>
      <trkpt lat="44.65673" lon="4.96606">
        <ele>395.24</ele>
        <time>2021-12-15T10:14:47Z</time>
      </trkpt>
      <trkpt lat="44.65661" lon="4.96597">
        <ele>395.24</ele>
        <time>2021-12-15T10:15:01Z</time>
      </trkpt>
      <trkpt lat="44.65659" lon="4.96595">
        <ele>395.24</ele>
        <time>2021-12-15T10:15:04Z</time>
      </trkpt>
      <trkpt lat="44.65649" lon="4.9659">
        <ele>395.72</ele>
        <time>2021-12-15T10:15:18Z</time>
      </trkpt>
      <trkpt lat="44.65643" lon="4.96586">
        <ele>396.2</ele>
        <time>2021-12-15T10:15:40Z</time>
      </trkpt>
      <trkpt lat="44.65629" lon="4.96573">
        <ele>396.2</ele>
        <time>2021-12-15T10:15:56Z</time>
      </trkpt>
      <trkpt lat="44.65617" lon="4.9656">
        <ele>396.2</ele>
        <time>2021-12-15T10:16:12Z</time>
      </trkpt>
      <trkpt lat="44.65607" lon="4.96541">
        <ele>397.16</ele>
        <time>2021-12-15T10:16:31Z</time>
      </trkpt>
      <trkpt lat="44.65602" lon="4.96531">
        <ele>397.16</ele>
        <time>2021-12-15T10:16:39Z</time>
      </trkpt>
      <trkpt lat="44.65592" lon="4.96512">
        <ele>398.12</ele>
        <time>2021-12-15T10:16:57Z</time>
      </trkpt>
      <trkpt lat="44.65575" lon="4.96489">
        <ele>398.6</ele>
        <time>2021-12-15T10:17:21Z</time>
      </trkpt>
      <trkpt lat="44.6556" lon="4.96463">
        <ele>399.57</ele>
        <time>2021-12-15T10:17:43Z</time>
      </trkpt>
      <trkpt lat="44.65558" lon="4.96459">
        <ele>399.57</ele>
        <time>2021-12-15T10:17:46Z</time>
      </trkpt>
      <trkpt lat="44.65555" lon="4.96452">
        <ele>399.57</ele>
        <time>2021-12-15T10:18:17Z</time>
      </trkpt>
      <trkpt lat="44.65548" lon="4.96432">
        <ele>399.57</ele>
        <time>2021-12-15T10:18:37Z</time>
      </trkpt>
      <trkpt lat="44.65541" lon="4.96407">
        <ele>400.53</ele>
        <time>2021-12-15T10:18:55Z</time>
      </trkpt>
      <trkpt lat="44.65539" lon="4.96382">
        <ele>401.01</ele>
        <time>2021-12-15T10:19:17Z</time>
      </trkpt>
      <trkpt lat="44.65533" lon="4.96361">
        <ele>403.89</ele>
        <time>2021-12-15T10:19:45Z</time>
      </trkpt>
      <trkpt lat="44.65529" lon="4.96337">
        <ele>407.26</ele>
        <time>2021-12-15T10:20:13Z</time>
      </trkpt>
      <trkpt lat="44.65522" lon="4.96318">
        <ele>409.66</ele>
        <time>2021-12-15T10:20:33Z</time>
      </trkpt>
      <trkpt lat="44.65517" lon="4.96301">
        <ele>412.06</ele>
        <time>2021-12-15T10:20:54Z</time>
      </trkpt>
      <trkpt lat="44.65524" lon="4.96279">
        <ele>414.95</ele>
        <time>2021-12-15T10:21:18Z</time>
      </trkpt>
      <trkpt lat="44.65532" lon="4.96257">
        <ele>417.83</ele>
        <time>2021-12-15T10:21:43Z</time>
      </trkpt>
      <trkpt lat="44.65528" lon="4.9624">
        <ele>420.23</ele>
        <time>2021-12-15T10:22:05Z</time>
      </trkpt>
      <trkpt lat="44.65513" lon="4.96237">
        <ele>420.71</ele>
        <time>2021-12-15T10:22:21Z</time>
      </trkpt>
      <trkpt lat="44.65491" lon="4.96234">
        <ele>421.68</ele>
        <time>2021-12-15T10:22:48Z</time>
      </trkpt>
      <trkpt lat="44.65479" lon="4.96229">
        <ele>423.6</ele>
        <time>2021-12-15T10:23:08Z</time>
      </trkpt>
      <trkpt lat="44.65478" lon="4.96227">
        <ele>424.08</ele>
        <time>2021-12-15T10:23:10Z</time>
      </trkpt>
      <trkpt lat="44.65477" lon="4.96215">
        <ele>426.96</ele>
        <time>2021-12-15T10:23:28Z</time>
      </trkpt>
      <trkpt lat="44.65467" lon="4.96209">
        <ele>430.33</ele>
        <time>2021-12-15T10:23:47Z</time>
      </trkpt>
      <trkpt lat="44.65456" lon="4.96205">
        <ele>433.21</ele>
        <time>2021-12-15T10:24:06Z</time>
      </trkpt>
      <trkpt lat="44.65445" lon="4.96203">
        <ele>435.61</ele>
        <time>2021-12-15T10:24:23Z</time>
      </trkpt>
      <trkpt lat="44.65432" lon="4.96204">
        <ele>438.98</ele>
        <time>2021-12-15T10:24:41Z</time>
      </trkpt>
      <trkpt lat="44.6542" lon="4.96202">
        <ele>440.9</ele>
        <time>2021-12-15T10:24:54Z</time>
      </trkpt>
      <trkpt lat="44.65407" lon="4.96193">
        <ele>442.34</ele>
        <time>2021-12-15T10:25:11Z</time>
      </trkpt>
      <trkpt lat="44.65393" lon="4.96179">
        <ele>444.75</ele>
        <time>2021-12-15T10:25:32Z</time>
      </trkpt>
      <trkpt lat="44.65387" lon="4.9616">
        <ele>446.67</ele>
        <time>2021-12-15T10:25:51Z</time>
      </trkpt>
      <trkpt lat="44.65376" lon="4.96139">
        <ele>448.59</ele>
        <time>2021-12-15T10:26:13Z</time>
      </trkpt>
      <trkpt lat="44.65372" lon="4.96129">
        <ele>449.07</ele>
        <time>2021-12-15T10:26:20Z</time>
      </trkpt>
      <trkpt lat="44.65368" lon="4.96117">
        <ele>450.03</ele>
        <time>2021-12-15T10:26:31Z</time>
      </trkpt>
      <trkpt lat="44.65358" lon="4.96098">
        <ele>453.4</ele>
        <time>2021-12-15T10:26:52Z</time>
      </trkpt>
      <trkpt lat="44.65347" lon="4.96081">
        <ele>453.88</ele>
        <time>2021-12-15T10:27:08Z</time>
      </trkpt>
      <trkpt lat="44.65335" lon="4.96075">
        <ele>454.36</ele>
        <time>2021-12-15T10:27:20Z</time>
      </trkpt>
      <trkpt lat="44.65318" lon="4.96062">
        <ele>454.36</ele>
        <time>2021-12-15T10:27:37Z</time>
      </trkpt>
      <trkpt lat="44.65312" lon="4.96059">
        <ele>454.36</ele>
        <time>2021-12-15T10:27:43Z</time>
      </trkpt>
      <trkpt lat="44.65292" lon="4.9604">
        <ele>453.88</ele>
        <time>2021-12-15T10:28:03Z</time>
      </trkpt>
      <trkpt lat="44.65276" lon="4.96021">
        <ele>454.84</ele>
        <time>2021-12-15T10:28:22Z</time>
      </trkpt>
      <trkpt lat="44.65279" lon="4.95999">
        <ele>455.8</ele>
        <time>2021-12-15T10:28:41Z</time>
      </trkpt>
      <trkpt lat="44.65281" lon="4.95997">
        <ele>456.28</ele>
        <time>2021-12-15T10:28:44Z</time>
      </trkpt>
      <trkpt lat="44.65287" lon="4.95987">
        <ele>456.76</ele>
        <time>2021-12-15T10:28:54Z</time>
      </trkpt>
      <trkpt lat="44.65288" lon="4.95987">
        <ele>456.76</ele>
        <time>2021-12-15T10:28:55Z</time>
      </trkpt>
      <trkpt lat="44.65302" lon="4.95977">
        <ele>456.28</ele>
        <time>2021-12-15T10:29:10Z</time>
      </trkpt>
      <trkpt lat="44.65319" lon="4.95967">
        <ele>454.36</ele>
        <time>2021-12-15T10:29:28Z</time>
      </trkpt>
      <trkpt lat="44.65333" lon="4.95958">
        <ele>453.4</ele>
        <time>2021-12-15T10:29:44Z</time>
      </trkpt>
      <trkpt lat="44.65343" lon="4.95952">
        <ele>451.96</ele>
        <time>2021-12-15T10:29:59Z</time>
      </trkpt>
      <trkpt lat="44.65349" lon="4.9595">
        <ele>451.96</ele>
        <time>2021-12-15T10:30:13Z</time>
      </trkpt>
      <trkpt lat="44.6537" lon="4.95942">
        <ele>450.03</ele>
        <time>2021-12-15T10:30:32Z</time>
      </trkpt>
      <trkpt lat="44.65389" lon="4.95933">
        <ele>448.11</ele>
        <time>2021-12-15T10:30:49Z</time>
      </trkpt>
      <trkpt lat="44.65395" lon="4.95929">
        <ele>447.63</ele>
        <time>2021-12-15T10:30:54Z</time>
      </trkpt>
      <trkpt lat="44.6541" lon="4.95923">
        <ele>447.15</ele>
        <time>2021-12-15T10:31:09Z</time>
      </trkpt>
      <trkpt lat="44.6541" lon="4.95922">
        <ele>447.63</ele>
        <time>2021-12-15T10:31:33Z</time>
      </trkpt>
      <trkpt lat="44.65411" lon="4.95922">
        <ele>447.15</ele>
        <time>2021-12-15T10:31:58Z</time>
      </trkpt>
      <trkpt lat="44.65411" lon="4.95922">
        <ele>447.63</ele>
        <time>2021-12-15T10:32:15Z</time>
      </trkpt>
      <trkpt lat="44.65412" lon="4.9592">
        <ele>447.63</ele>
        <time>2021-12-15T10:32:54Z</time>
      </trkpt>
      <trkpt lat="44.65413" lon="4.95921">
        <ele>447.63</ele>
        <time>2021-12-15T10:33:23Z</time>
      </trkpt>
      <trkpt lat="44.65412" lon="4.95921">
        <ele>447.63</ele>
        <time>2021-12-15T10:33:53Z</time>
      </trkpt>
      <trkpt lat="44.65412" lon="4.95921">
        <ele>447.63</ele>
        <time>2021-12-15T10:34:19Z</time>
      </trkpt>
      <trkpt lat="44.65412" lon="4.95921">
        <ele>447.63</ele>
        <time>2021-12-15T10:34:47Z</time>
      </trkpt>
      <trkpt lat="44.65412" lon="4.95921">
        <ele>447.63</ele>
        <time>2021-12-15T10:35:21Z</time>
      </trkpt>
      <trkpt lat="44.65412" lon="4.95921">
        <ele>447.63</ele>
        <time>2021-12-15T10:35:46Z</time>
      </trkpt>
      <trkpt lat="44.65413" lon="4.95921">
        <ele>447.63</ele>
        <time>2021-12-15T10:36:23Z</time>
      </trkpt>
      <trkpt lat="44.65413" lon="4.95922">
        <ele>447.63</ele>
        <time>2021-12-15T10:36:56Z</time>
      </trkpt>
      <trkpt lat="44.65422" lon="4.95919">
        <ele>447.63</ele>
        <time>2021-12-15T10:37:11Z</time>
      </trkpt>
      <trkpt lat="44.65425" lon="4.95918">
        <ele>447.63</ele>
        <time>2021-12-15T10:37:15Z</time>
      </trkpt>
      <trkpt lat="44.6543" lon="4.95916">
        <ele>447.15</ele>
        <time>2021-12-15T10:37:20Z</time>
      </trkpt>
      <trkpt lat="44.65447" lon="4.9591">
        <ele>446.67</ele>
        <time>2021-12-15T10:37:37Z</time>
      </trkpt>
      <trkpt lat="44.65462" lon="4.95902">
        <ele>445.71</ele>
        <time>2021-12-15T10:37:52Z</time>
      </trkpt>
      <trkpt lat="44.65466" lon="4.95899">
        <ele>445.71</ele>
        <time>2021-12-15T10:37:56Z</time>
      </trkpt>
      <trkpt lat="44.65473" lon="4.95893">
        <ele>445.71</ele>
        <time>2021-12-15T10:38:03Z</time>
      </trkpt>
      <trkpt lat="44.6549" lon="4.95879">
        <ele>445.23</ele>
        <time>2021-12-15T10:38:20Z</time>
      </trkpt>
      <trkpt lat="44.65506" lon="4.95868">
        <ele>444.75</ele>
        <time>2021-12-15T10:38:34Z</time>
      </trkpt>
      <trkpt lat="44.6552" lon="4.95858">
        <ele>444.75</ele>
        <time>2021-12-15T10:38:48Z</time>
      </trkpt>
      <trkpt lat="44.65534" lon="4.95848">
        <ele>443.79</ele>
        <time>2021-12-15T10:39:03Z</time>
      </trkpt>
      <trkpt lat="44.65549" lon="4.95836">
        <ele>444.27</ele>
        <time>2021-12-15T10:39:19Z</time>
      </trkpt>
      <trkpt lat="44.65559" lon="4.95816">
        <ele>443.79</ele>
        <time>2021-12-15T10:39:39Z</time>
      </trkpt>
      <trkpt lat="44.6556" lon="4.95813">
        <ele>443.79</ele>
        <time>2021-12-15T10:39:41Z</time>
      </trkpt>
      <trkpt lat="44.6556" lon="4.95811">
        <ele>443.79</ele>
        <time>2021-12-15T10:39:42Z</time>
      </trkpt>
      <trkpt lat="44.65562" lon="4.95805">
        <ele>443.79</ele>
        <time>2021-12-15T10:39:46Z</time>
      </trkpt>
      <trkpt lat="44.65566" lon="4.9579">
        <ele>443.79</ele>
        <time>2021-12-15T10:39:57Z</time>
      </trkpt>
      <trkpt lat="44.65566" lon="4.95786">
        <ele>443.79</ele>
        <time>2021-12-15T10:39:59Z</time>
      </trkpt>
      <trkpt lat="44.65561" lon="4.95763">
        <ele>444.27</ele>
        <time>2021-12-15T10:40:15Z</time>
      </trkpt>
      <trkpt lat="44.65559" lon="4.95755">
        <ele>444.75</ele>
        <time>2021-12-15T10:40:21Z</time>
      </trkpt>
      <trkpt lat="44.65555" lon="4.95747">
        <ele>444.75</ele>
        <time>2021-12-15T10:40:29Z</time>
      </trkpt>
      <trkpt lat="44.65553" lon="4.95745">
        <ele>444.75</ele>
        <time>2021-12-15T10:40:31Z</time>
      </trkpt>
      <trkpt lat="44.65537" lon="4.95735">
        <ele>445.71</ele>
        <time>2021-12-15T10:40:47Z</time>
      </trkpt>
      <trkpt lat="44.65532" lon="4.95723">
        <ele>446.19</ele>
        <time>2021-12-15T10:41:03Z</time>
      </trkpt>
      <trkpt lat="44.65544" lon="4.95717">
        <ele>447.15</ele>
        <time>2021-12-15T10:41:18Z</time>
      </trkpt>
      <trkpt lat="44.65561" lon="4.95708">
        <ele>447.63</ele>
        <time>2021-12-15T10:41:35Z</time>
      </trkpt>
      <trkpt lat="44.65575" lon="4.95704">
        <ele>448.59</ele>
        <time>2021-12-15T10:41:50Z</time>
      </trkpt>
      <trkpt lat="44.65586" lon="4.95692">
        <ele>449.07</ele>
        <time>2021-12-15T10:42:05Z</time>
      </trkpt>
      <trkpt lat="44.65597" lon="4.95679">
        <ele>450.03</ele>
        <time>2021-12-15T10:42:20Z</time>
      </trkpt>
      <trkpt lat="44.6561" lon="4.95669">
        <ele>450.52</ele>
        <time>2021-12-15T10:42:34Z</time>
      </trkpt>
      <trkpt lat="44.65622" lon="4.95657">
        <ele>451.96</ele>
        <time>2021-12-15T10:42:50Z</time>
      </trkpt>
      <trkpt lat="44.65632" lon="4.95651">
        <ele>452.44</ele>
        <time>2021-12-15T10:43:04Z</time>
      </trkpt>
      <trkpt lat="44.65646" lon="4.95639">
        <ele>453.4</ele>
        <time>2021-12-15T10:43:21Z</time>
      </trkpt>
      <trkpt lat="44.65658" lon="4.95628">
        <ele>454.84</ele>
        <time>2021-12-15T10:43:37Z</time>
      </trkpt>
      <trkpt lat="44.6567" lon="4.95613">
        <ele>455.8</ele>
        <time>2021-12-15T10:43:55Z</time>
      </trkpt>
      <trkpt lat="44.65677" lon="4.95608">
        <ele>456.76</ele>
        <time>2021-12-15T10:44:02Z</time>
      </trkpt>
      <trkpt lat="44.65678" lon="4.95607">
        <ele>456.76</ele>
        <time>2021-12-15T10:44:03Z</time>
      </trkpt>
      <trkpt lat="44.65693" lon="4.95592">
        <ele>457.24</ele>
        <time>2021-12-15T10:44:21Z</time>
      </trkpt>
      <trkpt lat="44.65693" lon="4.95587">
        <ele>457.24</ele>
        <time>2021-12-15T10:44:26Z</time>
      </trkpt>
      <trkpt lat="44.65694" lon="4.95566">
        <ele>454.84</ele>
        <time>2021-12-15T10:44:44Z</time>
      </trkpt>
      <trkpt lat="44.65695" lon="4.95563">
        <ele>454.36</ele>
        <time>2021-12-15T10:44:47Z</time>
      </trkpt>
      <trkpt lat="44.65696" lon="4.95562">
        <ele>454.36</ele>
        <time>2021-12-15T10:44:48Z</time>
      </trkpt>
      <trkpt lat="44.65696" lon="4.9556">
        <ele>454.36</ele>
        <time>2021-12-15T10:44:49Z</time>
      </trkpt>
      <trkpt lat="44.65702" lon="4.95542">
        <ele>453.4</ele>
        <time>2021-12-15T10:45:05Z</time>
      </trkpt>
      <trkpt lat="44.65702" lon="4.95541">
        <ele>453.4</ele>
        <time>2021-12-15T10:45:06Z</time>
      </trkpt>
      <trkpt lat="44.65703" lon="4.9554">
        <ele>453.4</ele>
        <time>2021-12-15T10:45:07Z</time>
      </trkpt>
      <trkpt lat="44.65715" lon="4.9552">
        <ele>451.96</ele>
        <time>2021-12-15T10:45:27Z</time>
      </trkpt>
      <trkpt lat="44.65717" lon="4.95519">
        <ele>451.48</ele>
        <time>2021-12-15T10:45:29Z</time>
      </trkpt>
      <trkpt lat="44.6573" lon="4.95515">
        <ele>451.48</ele>
        <time>2021-12-15T10:45:45Z</time>
      </trkpt>
      <trkpt lat="44.65742" lon="4.95511">
        <ele>451.48</ele>
        <time>2021-12-15T10:46:01Z</time>
      </trkpt>
      <trkpt lat="44.65758" lon="4.95505">
        <ele>451.96</ele>
        <time>2021-12-15T10:46:20Z</time>
      </trkpt>
      <trkpt lat="44.6577" lon="4.95499">
        <ele>451.96</ele>
        <time>2021-12-15T10:46:38Z</time>
      </trkpt>
      <trkpt lat="44.65778" lon="4.95493">
        <ele>451</ele>
        <time>2021-12-15T10:46:54Z</time>
      </trkpt>
      <trkpt lat="44.65788" lon="4.95485">
        <ele>451</ele>
        <time>2021-12-15T10:47:12Z</time>
      </trkpt>
      <trkpt lat="44.65793" lon="4.95482">
        <ele>450.52</ele>
        <time>2021-12-15T10:47:19Z</time>
      </trkpt>
      <trkpt lat="44.65795" lon="4.9548">
        <ele>450.52</ele>
        <time>2021-12-15T10:47:22Z</time>
      </trkpt>
      <trkpt lat="44.6581" lon="4.9547">
        <ele>450.03</ele>
        <time>2021-12-15T10:47:41Z</time>
      </trkpt>
      <trkpt lat="44.65826" lon="4.95456">
        <ele>449.07</ele>
        <time>2021-12-15T10:48:02Z</time>
      </trkpt>
      <trkpt lat="44.65831" lon="4.95436">
        <ele>448.11</ele>
        <time>2021-12-15T10:48:19Z</time>
      </trkpt>
      <trkpt lat="44.65827" lon="4.95407">
        <ele>447.63</ele>
        <time>2021-12-15T10:48:40Z</time>
      </trkpt>
      <trkpt lat="44.65827" lon="4.95386">
        <ele>445.71</ele>
        <time>2021-12-15T10:48:59Z</time>
      </trkpt>
      <trkpt lat="44.65828" lon="4.95385">
        <ele>445.23</ele>
        <time>2021-12-15T10:49:00Z</time>
      </trkpt>
      <trkpt lat="44.65828" lon="4.95384">
        <ele>445.23</ele>
        <time>2021-12-15T10:49:01Z</time>
      </trkpt>
      <trkpt lat="44.65827" lon="4.95361">
        <ele>445.23</ele>
        <time>2021-12-15T10:49:20Z</time>
      </trkpt>
      <trkpt lat="44.65824" lon="4.95332">
        <ele>443.79</ele>
        <time>2021-12-15T10:49:41Z</time>
      </trkpt>
      <trkpt lat="44.65822" lon="4.95319">
        <ele>443.79</ele>
        <time>2021-12-15T10:49:51Z</time>
      </trkpt>
      <trkpt lat="44.65822" lon="4.95318">
        <ele>443.79</ele>
        <time>2021-12-15T10:49:52Z</time>
      </trkpt>
      <trkpt lat="44.65821" lon="4.9531">
        <ele>443.31</ele>
        <time>2021-12-15T10:49:58Z</time>
      </trkpt>
      <trkpt lat="44.65818" lon="4.95289">
        <ele>443.31</ele>
        <time>2021-12-15T10:50:16Z</time>
      </trkpt>
      <trkpt lat="44.65806" lon="4.95287">
        <ele>442.82</ele>
        <time>2021-12-15T10:50:32Z</time>
      </trkpt>
      <trkpt lat="44.6579" lon="4.95287">
        <ele>441.38</ele>
        <time>2021-12-15T10:50:49Z</time>
      </trkpt>
      <trkpt lat="44.65782" lon="4.95285">
        <ele>439.94</ele>
        <time>2021-12-15T10:50:59Z</time>
      </trkpt>
      <trkpt lat="44.65761" lon="4.95279">
        <ele>437.06</ele>
        <time>2021-12-15T10:51:20Z</time>
      </trkpt>
      <trkpt lat="44.65745" lon="4.95271">
        <ele>435.13</ele>
        <time>2021-12-15T10:51:36Z</time>
      </trkpt>
      <trkpt lat="44.65722" lon="4.95266">
        <ele>433.21</ele>
        <time>2021-12-15T10:51:58Z</time>
      </trkpt>
      <trkpt lat="44.65716" lon="4.95265">
        <ele>432.73</ele>
        <time>2021-12-15T10:52:04Z</time>
      </trkpt>
      <trkpt lat="44.65715" lon="4.95264">
        <ele>432.73</ele>
        <time>2021-12-15T10:52:05Z</time>
      </trkpt>
      <trkpt lat="44.65704" lon="4.95246">
        <ele>430.81</ele>
        <time>2021-12-15T10:52:23Z</time>
      </trkpt>
      <trkpt lat="44.65693" lon="4.95224">
        <ele>428.4</ele>
        <time>2021-12-15T10:52:44Z</time>
      </trkpt>
      <trkpt lat="44.65683" lon="4.95198">
        <ele>425.52</ele>
        <time>2021-12-15T10:53:06Z</time>
      </trkpt>
      <trkpt lat="44.65677" lon="4.95175">
        <ele>425.04</ele>
        <time>2021-12-15T10:53:24Z</time>
      </trkpt>
      <trkpt lat="44.65668" lon="4.95146">
        <ele>423.6</ele>
        <time>2021-12-15T10:53:46Z</time>
      </trkpt>
      <trkpt lat="44.65655" lon="4.95119">
        <ele>421.19</ele>
        <time>2021-12-15T10:54:09Z</time>
      </trkpt>
      <trkpt lat="44.65648" lon="4.9511">
        <ele>420.23</ele>
        <time>2021-12-15T10:54:20Z</time>
      </trkpt>
      <trkpt lat="44.65647" lon="4.95108">
        <ele>419.75</ele>
        <time>2021-12-15T10:54:22Z</time>
      </trkpt>
      <trkpt lat="44.65646" lon="4.95107">
        <ele>419.75</ele>
        <time>2021-12-15T10:54:23Z</time>
      </trkpt>
      <trkpt lat="44.65628" lon="4.95082">
        <ele>418.31</ele>
        <time>2021-12-15T10:54:48Z</time>
      </trkpt>
      <trkpt lat="44.65627" lon="4.9508">
        <ele>418.31</ele>
        <time>2021-12-15T10:54:49Z</time>
      </trkpt>
      <trkpt lat="44.65626" lon="4.95076">
        <ele>418.31</ele>
        <time>2021-12-15T10:54:52Z</time>
      </trkpt>
      <trkpt lat="44.65625" lon="4.95075">
        <ele>418.31</ele>
        <time>2021-12-15T10:54:53Z</time>
      </trkpt>
      <trkpt lat="44.65618" lon="4.95044">
        <ele>419.27</ele>
        <time>2021-12-15T10:55:14Z</time>
      </trkpt>
      <trkpt lat="44.65612" lon="4.95023">
        <ele>418.79</ele>
        <time>2021-12-15T10:55:30Z</time>
      </trkpt>
      <trkpt lat="44.65604" lon="4.95004">
        <ele>417.83</ele>
        <time>2021-12-15T10:55:47Z</time>
      </trkpt>
      <trkpt lat="44.65604" lon="4.95001">
        <ele>417.83</ele>
        <time>2021-12-15T10:55:53Z</time>
      </trkpt>
      <trkpt lat="44.65603" lon="4.94999">
        <ele>417.35</ele>
        <time>2021-12-15T10:55:54Z</time>
      </trkpt>
      <trkpt lat="44.65603" lon="4.94998">
        <ele>417.35</ele>
        <time>2021-12-15T10:55:55Z</time>
      </trkpt>
      <trkpt lat="44.65602" lon="4.94996">
        <ele>417.35</ele>
        <time>2021-12-15T10:55:56Z</time>
      </trkpt>
      <trkpt lat="44.65601" lon="4.94994">
        <ele>416.87</ele>
        <time>2021-12-15T10:55:57Z</time>
      </trkpt>
      <trkpt lat="44.65595" lon="4.94964">
        <ele>416.87</ele>
        <time>2021-12-15T10:56:18Z</time>
      </trkpt>
      <trkpt lat="44.65587" lon="4.94925">
        <ele>418.31</ele>
        <time>2021-12-15T10:56:41Z</time>
      </trkpt>
      <trkpt lat="44.65578" lon="4.9489">
        <ele>418.79</ele>
        <time>2021-12-15T10:57:03Z</time>
      </trkpt>
      <trkpt lat="44.6557" lon="4.94853">
        <ele>418.79</ele>
        <time>2021-12-15T10:57:25Z</time>
      </trkpt>
      <trkpt lat="44.65559" lon="4.94822">
        <ele>418.79</ele>
        <time>2021-12-15T10:57:46Z</time>
      </trkpt>
      <trkpt lat="44.65545" lon="4.94792">
        <ele>417.83</ele>
        <time>2021-12-15T10:58:07Z</time>
      </trkpt>
      <trkpt lat="44.65533" lon="4.94763">
        <ele>414.95</ele>
        <time>2021-12-15T10:58:27Z</time>
      </trkpt>
      <trkpt lat="44.65525" lon="4.9473">
        <ele>412.06</ele>
        <time>2021-12-15T10:58:47Z</time>
      </trkpt>
      <trkpt lat="44.65517" lon="4.94703">
        <ele>410.14</ele>
        <time>2021-12-15T10:59:06Z</time>
      </trkpt>
      <trkpt lat="44.65503" lon="4.94684">
        <ele>407.26</ele>
        <time>2021-12-15T10:59:23Z</time>
      </trkpt>
      <trkpt lat="44.65486" lon="4.9466">
        <ele>404.37</ele>
        <time>2021-12-15T10:59:44Z</time>
      </trkpt>
      <trkpt lat="44.65467" lon="4.94631">
        <ele>401.49</ele>
        <time>2021-12-15T11:00:08Z</time>
      </trkpt>
      <trkpt lat="44.65452" lon="4.9461">
        <ele>398.6</ele>
        <time>2021-12-15T11:00:27Z</time>
      </trkpt>
      <trkpt lat="44.65431" lon="4.94583">
        <ele>396.68</ele>
        <time>2021-12-15T11:00:51Z</time>
      </trkpt>
      <trkpt lat="44.65413" lon="4.94559">
        <ele>395.72</ele>
        <time>2021-12-15T11:01:12Z</time>
      </trkpt>
      <trkpt lat="44.65397" lon="4.94538">
        <ele>396.2</ele>
        <time>2021-12-15T11:01:32Z</time>
      </trkpt>
      <trkpt lat="44.65376" lon="4.94509">
        <ele>393.8</ele>
        <time>2021-12-15T11:01:57Z</time>
      </trkpt>
      <trkpt lat="44.65359" lon="4.9448">
        <ele>390.91</ele>
        <time>2021-12-15T11:02:19Z</time>
      </trkpt>
      <trkpt lat="44.65344" lon="4.9445">
        <ele>388.03</ele>
        <time>2021-12-15T11:02:42Z</time>
      </trkpt>
      <trkpt lat="44.65322" lon="4.94426">
        <ele>386.11</ele>
        <time>2021-12-15T11:03:04Z</time>
      </trkpt>
      <trkpt lat="44.65302" lon="4.94402">
        <ele>384.18</ele>
        <time>2021-12-15T11:03:26Z</time>
      </trkpt>
      <trkpt lat="44.65283" lon="4.94378">
        <ele>382.74</ele>
        <time>2021-12-15T11:03:49Z</time>
      </trkpt>
      <trkpt lat="44.65268" lon="4.94359">
        <ele>379.38</ele>
        <time>2021-12-15T11:04:07Z</time>
      </trkpt>
      <trkpt lat="44.65247" lon="4.94354">
        <ele>377.45</ele>
        <time>2021-12-15T11:04:25Z</time>
      </trkpt>
      <trkpt lat="44.65223" lon="4.94351">
        <ele>376.01</ele>
        <time>2021-12-15T11:04:46Z</time>
      </trkpt>
      <trkpt lat="44.652" lon="4.94348">
        <ele>375.05</ele>
        <time>2021-12-15T11:05:07Z</time>
      </trkpt>
      <trkpt lat="44.65197" lon="4.94348">
        <ele>374.57</ele>
        <time>2021-12-15T11:05:20Z</time>
      </trkpt>
      <trkpt lat="44.65195" lon="4.94347">
        <ele>374.09</ele>
        <time>2021-12-15T11:05:36Z</time>
      </trkpt>
      <trkpt lat="44.65195" lon="4.94347">
        <ele>374.57</ele>
        <time>2021-12-15T11:06:04Z</time>
      </trkpt>
      <trkpt lat="44.65187" lon="4.94345">
        <ele>374.09</ele>
        <time>2021-12-15T11:06:21Z</time>
      </trkpt>
      <trkpt lat="44.65185" lon="4.94344">
        <ele>374.09</ele>
        <time>2021-12-15T11:06:23Z</time>
      </trkpt>
      <trkpt lat="44.65174" lon="4.94337">
        <ele>373.13</ele>
        <time>2021-12-15T11:06:39Z</time>
      </trkpt>
      <trkpt lat="44.65165" lon="4.94332">
        <ele>372.17</ele>
        <time>2021-12-15T11:06:53Z</time>
      </trkpt>
      <trkpt lat="44.65153" lon="4.94322">
        <ele>370.73</ele>
        <time>2021-12-15T11:07:08Z</time>
      </trkpt>
      <trkpt lat="44.65139" lon="4.9431">
        <ele>369.76</ele>
        <time>2021-12-15T11:07:28Z</time>
      </trkpt>
      <trkpt lat="44.6513" lon="4.94301">
        <ele>368.32</ele>
        <time>2021-12-15T11:07:43Z</time>
      </trkpt>
      <trkpt lat="44.65124" lon="4.94295">
        <ele>366.4</ele>
        <time>2021-12-15T11:07:56Z</time>
      </trkpt>
      <trkpt lat="44.65112" lon="4.9428">
        <ele>363.52</ele>
        <time>2021-12-15T11:08:14Z</time>
      </trkpt>
      <trkpt lat="44.65107" lon="4.94269">
        <ele>361.11</ele>
        <time>2021-12-15T11:08:29Z</time>
      </trkpt>
      <trkpt lat="44.65101" lon="4.94251">
        <ele>358.23</ele>
        <time>2021-12-15T11:08:46Z</time>
      </trkpt>
      <trkpt lat="44.65098" lon="4.94243">
        <ele>355.83</ele>
        <time>2021-12-15T11:09:07Z</time>
      </trkpt>
      <trkpt lat="44.65095" lon="4.94239">
        <ele>354.86</ele>
        <time>2021-12-15T11:09:28Z</time>
      </trkpt>
      <trkpt lat="44.65091" lon="4.94231">
        <ele>353.9</ele>
        <time>2021-12-15T11:09:45Z</time>
      </trkpt>
      <trkpt lat="44.65083" lon="4.94223">
        <ele>351.02</ele>
        <time>2021-12-15T11:10:02Z</time>
      </trkpt>
      <trkpt lat="44.65077" lon="4.94213">
        <ele>348.62</ele>
        <time>2021-12-15T11:10:17Z</time>
      </trkpt>
      <trkpt lat="44.6507" lon="4.94205">
        <ele>345.25</ele>
        <time>2021-12-15T11:10:30Z</time>
      </trkpt>
      <trkpt lat="44.65064" lon="4.94199">
        <ele>342.85</ele>
        <time>2021-12-15T11:10:48Z</time>
      </trkpt>
      <trkpt lat="44.65061" lon="4.94196">
        <ele>342.85</ele>
        <time>2021-12-15T11:10:52Z</time>
      </trkpt>
      <trkpt lat="44.65048" lon="4.94187">
        <ele>343.33</ele>
        <time>2021-12-15T11:11:10Z</time>
      </trkpt>
      <trkpt lat="44.65043" lon="4.94188">
        <ele>342.37</ele>
        <time>2021-12-15T11:11:29Z</time>
      </trkpt>
      <trkpt lat="44.65043" lon="4.94188">
        <ele>343.81</ele>
        <time>2021-12-15T11:11:53Z</time>
      </trkpt>
      <trkpt lat="44.65041" lon="4.9419">
        <ele>342.85</ele>
        <time>2021-12-15T11:12:17Z</time>
      </trkpt>
      <trkpt lat="44.6504" lon="4.94191">
        <ele>343.33</ele>
        <time>2021-12-15T11:12:40Z</time>
      </trkpt>
      <trkpt lat="44.65038" lon="4.94195">
        <ele>343.81</ele>
        <time>2021-12-15T11:12:48Z</time>
      </trkpt>
      <trkpt lat="44.65036" lon="4.94197">
        <ele>343.81</ele>
        <time>2021-12-15T11:12:50Z</time>
      </trkpt>
      <trkpt lat="44.65025" lon="4.9421">
        <ele>341.41</ele>
        <time>2021-12-15T11:13:04Z</time>
      </trkpt>
      <trkpt lat="44.65024" lon="4.94211">
        <ele>341.41</ele>
        <time>2021-12-15T11:13:05Z</time>
      </trkpt>
      <trkpt lat="44.65022" lon="4.94213">
        <ele>340.92</ele>
        <time>2021-12-15T11:13:07Z</time>
      </trkpt>
      <trkpt lat="44.65021" lon="4.94214">
        <ele>340.92</ele>
        <time>2021-12-15T11:13:08Z</time>
      </trkpt>
      <trkpt lat="44.6502" lon="4.94215">
        <ele>340.92</ele>
        <time>2021-12-15T11:13:09Z</time>
      </trkpt>
      <trkpt lat="44.65011" lon="4.94228">
        <ele>338.04</ele>
        <time>2021-12-15T11:13:23Z</time>
      </trkpt>
      <trkpt lat="44.65003" lon="4.9424">
        <ele>334.68</ele>
        <time>2021-12-15T11:13:41Z</time>
      </trkpt>
      <trkpt lat="44.64996" lon="4.94248">
        <ele>331.79</ele>
        <time>2021-12-15T11:13:54Z</time>
      </trkpt>
      <trkpt lat="44.64994" lon="4.9425">
        <ele>329.39</ele>
        <time>2021-12-15T11:14:07Z</time>
      </trkpt>
      <trkpt lat="44.64987" lon="4.94258">
        <ele>328.91</ele>
        <time>2021-12-15T11:14:25Z</time>
      </trkpt>
      <trkpt lat="44.64976" lon="4.94264">
        <ele>326.5</ele>
        <time>2021-12-15T11:14:44Z</time>
      </trkpt>
      <trkpt lat="44.64969" lon="4.94272">
        <ele>326.02</ele>
        <time>2021-12-15T11:15:03Z</time>
      </trkpt>
      <trkpt lat="44.64962" lon="4.94279">
        <ele>324.58</ele>
        <time>2021-12-15T11:15:18Z</time>
      </trkpt>
      <trkpt lat="44.64955" lon="4.9429">
        <ele>321.22</ele>
        <time>2021-12-15T11:15:30Z</time>
      </trkpt>
      <trkpt lat="44.64948" lon="4.94301">
        <ele>318.33</ele>
        <time>2021-12-15T11:15:41Z</time>
      </trkpt>
      <trkpt lat="44.64937" lon="4.94317">
        <ele>314.97</ele>
        <time>2021-12-15T11:16:01Z</time>
      </trkpt>
      <trkpt lat="44.64935" lon="4.9432">
        <ele>314.01</ele>
        <time>2021-12-15T11:16:04Z</time>
      </trkpt>
      <trkpt lat="44.64923" lon="4.94332">
        <ele>311.6</ele>
        <time>2021-12-15T11:16:23Z</time>
      </trkpt>
      <trkpt lat="44.64916" lon="4.94337">
        <ele>309.68</ele>
        <time>2021-12-15T11:16:39Z</time>
      </trkpt>
      <trkpt lat="44.64909" lon="4.94335">
        <ele>308.72</ele>
        <time>2021-12-15T11:16:55Z</time>
      </trkpt>
      <trkpt lat="44.64906" lon="4.94333">
        <ele>309.2</ele>
        <time>2021-12-15T11:17:11Z</time>
      </trkpt>
      <trkpt lat="44.64895" lon="4.94322">
        <ele>310.64</ele>
        <time>2021-12-15T11:17:31Z</time>
      </trkpt>
      <trkpt lat="44.64887" lon="4.94314">
        <ele>313.53</ele>
        <time>2021-12-15T11:17:48Z</time>
      </trkpt>
      <trkpt lat="44.64872" lon="4.94305">
        <ele>315.45</ele>
        <time>2021-12-15T11:18:10Z</time>
      </trkpt>
      <trkpt lat="44.64862" lon="4.94299">
        <ele>316.41</ele>
        <time>2021-12-15T11:18:25Z</time>
      </trkpt>
      <trkpt lat="44.64854" lon="4.94288">
        <ele>316.41</ele>
        <time>2021-12-15T11:18:42Z</time>
      </trkpt>
      <trkpt lat="44.64854" lon="4.94282">
        <ele>318.33</ele>
        <time>2021-12-15T11:19:00Z</time>
      </trkpt>
      <trkpt lat="44.64855" lon="4.94268">
        <ele>320.74</ele>
        <time>2021-12-15T11:19:22Z</time>
      </trkpt>
      <trkpt lat="44.64852" lon="4.94255">
        <ele>323.14</ele>
        <time>2021-12-15T11:19:43Z</time>
      </trkpt>
      <trkpt lat="44.6485" lon="4.94247">
        <ele>325.06</ele>
        <time>2021-12-15T11:20:04Z</time>
      </trkpt>
      <trkpt lat="44.64849" lon="4.94239">
        <ele>326.02</ele>
        <time>2021-12-15T11:20:21Z</time>
      </trkpt>
      <trkpt lat="44.64846" lon="4.94225">
        <ele>328.43</ele>
        <time>2021-12-15T11:20:48Z</time>
      </trkpt>
      <trkpt lat="44.64848" lon="4.94211">
        <ele>330.35</ele>
        <time>2021-12-15T11:21:09Z</time>
      </trkpt>
      <trkpt lat="44.64849" lon="4.94195">
        <ele>333.23</ele>
        <time>2021-12-15T11:21:31Z</time>
      </trkpt>
      <trkpt lat="44.64848" lon="4.94184">
        <ele>335.64</ele>
        <time>2021-12-15T11:21:55Z</time>
      </trkpt>
      <trkpt lat="44.64848" lon="4.94168">
        <ele>338.52</ele>
        <time>2021-12-15T11:22:18Z</time>
      </trkpt>
      <trkpt lat="44.64848" lon="4.94161">
        <ele>340.44</ele>
        <time>2021-12-15T11:22:44Z</time>
      </trkpt>
      <trkpt lat="44.6485" lon="4.9415">
        <ele>342.37</ele>
        <time>2021-12-15T11:23:01Z</time>
      </trkpt>
      <trkpt lat="44.6486" lon="4.94145">
        <ele>345.25</ele>
        <time>2021-12-15T11:23:19Z</time>
      </trkpt>
      <trkpt lat="44.64871" lon="4.94134">
        <ele>348.13</ele>
        <time>2021-12-15T11:23:43Z</time>
      </trkpt>
      <trkpt lat="44.64875" lon="4.94138">
        <ele>349.58</ele>
        <time>2021-12-15T11:24:00Z</time>
      </trkpt>
      <trkpt lat="44.64875" lon="4.94142">
        <ele>350.06</ele>
        <time>2021-12-15T11:24:19Z</time>
      </trkpt>
      <trkpt lat="44.64877" lon="4.94148">
        <ele>351.02</ele>
        <time>2021-12-15T11:24:39Z</time>
      </trkpt>
      <trkpt lat="44.64875" lon="4.94159">
        <ele>351.5</ele>
        <time>2021-12-15T11:25:02Z</time>
      </trkpt>
      <trkpt lat="44.64875" lon="4.94169">
        <ele>351.98</ele>
        <time>2021-12-15T11:25:21Z</time>
      </trkpt>
      <trkpt lat="44.64873" lon="4.94179">
        <ele>351.5</ele>
        <time>2021-12-15T11:25:37Z</time>
      </trkpt>
      <trkpt lat="44.6487" lon="4.94183">
        <ele>351.98</ele>
        <time>2021-12-15T11:25:59Z</time>
      </trkpt>
      <trkpt lat="44.64868" lon="4.94183">
        <ele>351.98</ele>
        <time>2021-12-15T11:26:19Z</time>
      </trkpt>
      <trkpt lat="44.64868" lon="4.94183">
        <ele>351.98</ele>
        <time>2021-12-15T11:26:43Z</time>
      </trkpt>
      <trkpt lat="44.64868" lon="4.94183">
        <ele>350.06</ele>
        <time>2021-12-15T11:26:46Z</time>
      </trkpt>
      <trkpt lat="44.64866" lon="4.9418">
        <ele>349.1</ele>
        <time>2021-12-15T11:27:02Z</time>
      </trkpt>
      <trkpt lat="44.64867" lon="4.94182">
        <ele>349.58</ele>
        <time>2021-12-15T11:27:21Z</time>
      </trkpt>
      <trkpt lat="44.64868" lon="4.94183">
        <ele>349.58</ele>
        <time>2021-12-15T11:27:35Z</time>
      </trkpt>
      <trkpt lat="44.64868" lon="4.94186">
        <ele>349.1</ele>
        <time>2021-12-15T11:27:57Z</time>
      </trkpt>
      <trkpt lat="44.64869" lon="4.94188">
        <ele>349.1</ele>
        <time>2021-12-15T11:28:13Z</time>
      </trkpt>
      <trkpt lat="44.64868" lon="4.94189">
        <ele>349.1</ele>
        <time>2021-12-15T11:28:33Z</time>
      </trkpt>
      <trkpt lat="44.64868" lon="4.94189">
        <ele>349.1</ele>
        <time>2021-12-15T11:29:42Z</time>
      </trkpt>
      <trkpt lat="44.64868" lon="4.94189">
        <ele>349.1</ele>
        <time>2021-12-15T11:30:31Z</time>
      </trkpt>
      <trkpt lat="44.64867" lon="4.9419">
        <ele>349.1</ele>
        <time>2021-12-15T11:31:08Z</time>
      </trkpt>
      <trkpt lat="44.64867" lon="4.94189">
        <ele>349.1</ele>
        <time>2021-12-15T11:31:32Z</time>
      </trkpt>
      <trkpt lat="44.64867" lon="4.94189">
        <ele>349.1</ele>
        <time>2021-12-15T11:31:55Z</time>
      </trkpt>
      <trkpt lat="44.64867" lon="4.94188">
        <ele>349.1</ele>
        <time>2021-12-15T11:36:53Z</time>
      </trkpt>
      <trkpt lat="44.64867" lon="4.94188">
        <ele>349.1</ele>
        <time>2021-12-15T11:44:36Z</time>
      </trkpt>
      <trkpt lat="44.64867" lon="4.94188">
        <ele>349.1</ele>
        <time>2021-12-15T11:45:25Z</time>
      </trkpt>
      <trkpt lat="44.64867" lon="4.94188">
        <ele>349.1</ele>
        <time>2021-12-15T11:46:25Z</time>
      </trkpt>
      <trkpt lat="44.64867" lon="4.94188">
        <ele>349.1</ele>
        <time>2021-12-15T11:47:41Z</time>
      </trkpt>
      <trkpt lat="44.64868" lon="4.94188">
        <ele>349.1</ele>
        <time>2021-12-15T11:48:53Z</time>
      </trkpt>
      <trkpt lat="44.64868" lon="4.94188">
        <ele>349.1</ele>
        <time>2021-12-15T11:50:34Z</time>
      </trkpt>
      <trkpt lat="44.64868" lon="4.94188">
        <ele>349.1</ele>
        <time>2021-12-15T11:52:09Z</time>
      </trkpt>
      <trkpt lat="44.64867" lon="4.94188">
        <ele>349.1</ele>
        <time>2021-12-15T11:53:34Z</time>
      </trkpt>
      <trkpt lat="44.64867" lon="4.94188">
        <ele>349.1</ele>
        <time>2021-12-15T11:54:12Z</time>
      </trkpt>
      <trkpt lat="44.64867" lon="4.94188">
        <ele>349.1</ele>
        <time>2021-12-15T11:54:45Z</time>
      </trkpt>
      <trkpt lat="44.64867" lon="4.94188">
        <ele>349.1</ele>
        <time>2021-12-15T11:55:17Z</time>
      </trkpt>
      <trkpt lat="44.64867" lon="4.94187">
        <ele>349.1</ele>
        <time>2021-12-15T11:56:19Z</time>
      </trkpt>
      <trkpt lat="44.64867" lon="4.94188">
        <ele>349.1</ele>
        <time>2021-12-15T11:57:04Z</time>
      </trkpt>
      <trkpt lat="44.64866" lon="4.94188">
        <ele>349.1</ele>
        <time>2021-12-15T11:57:43Z</time>
      </trkpt>
      <trkpt lat="44.64867" lon="4.94188">
        <ele>349.1</ele>
        <time>2021-12-15T11:58:23Z</time>
      </trkpt>
      <trkpt lat="44.64866" lon="4.94189">
        <ele>349.1</ele>
        <time>2021-12-15T11:59:09Z</time>
      </trkpt>
      <trkpt lat="44.64867" lon="4.94189">
        <ele>349.1</ele>
        <time>2021-12-15T11:59:28Z</time>
      </trkpt>
      <trkpt lat="44.64866" lon="4.94189">
        <ele>349.1</ele>
        <time>2021-12-15T11:59:56Z</time>
      </trkpt>
      <trkpt lat="44.64867" lon="4.94189">
        <ele>349.1</ele>
        <time>2021-12-15T12:00:32Z</time>
      </trkpt>
      <trkpt lat="44.64866" lon="4.9419">
        <ele>349.1</ele>
        <time>2021-12-15T12:01:06Z</time>
      </trkpt>
      <trkpt lat="44.64867" lon="4.94189">
        <ele>349.1</ele>
        <time>2021-12-15T12:01:22Z</time>
      </trkpt>
      <trkpt lat="44.64867" lon="4.94189">
        <ele>349.1</ele>
        <time>2021-12-15T12:01:44Z</time>
      </trkpt>
      <trkpt lat="44.64867" lon="4.94188">
        <ele>349.1</ele>
        <time>2021-12-15T12:02:06Z</time>
      </trkpt>
      <trkpt lat="44.64867" lon="4.94187">
        <ele>349.1</ele>
        <time>2021-12-15T12:02:42Z</time>
      </trkpt>
      <trkpt lat="44.64867" lon="4.94186">
        <ele>349.1</ele>
        <time>2021-12-15T12:03:06Z</time>
      </trkpt>
      <trkpt lat="44.64868" lon="4.94187">
        <ele>349.1</ele>
        <time>2021-12-15T12:03:26Z</time>
      </trkpt>
      <trkpt lat="44.64868" lon="4.94186">
        <ele>349.1</ele>
        <time>2021-12-15T12:03:51Z</time>
      </trkpt>
      <trkpt lat="44.64872" lon="4.94178">
        <ele>349.1</ele>
        <time>2021-12-15T12:04:09Z</time>
      </trkpt>
      <trkpt lat="44.64874" lon="4.94171">
        <ele>352.46</ele>
        <time>2021-12-15T12:04:22Z</time>
      </trkpt>
      <trkpt lat="44.64874" lon="4.9417">
        <ele>352.46</ele>
        <time>2021-12-15T12:04:23Z</time>
      </trkpt>
      <trkpt lat="44.64873" lon="4.9416">
        <ele>352.46</ele>
        <time>2021-12-15T12:04:42Z</time>
      </trkpt>
      <trkpt lat="44.64874" lon="4.94149">
        <ele>351.98</ele>
        <time>2021-12-15T12:05:03Z</time>
      </trkpt>
      <trkpt lat="44.64874" lon="4.94139">
        <ele>351.98</ele>
        <time>2021-12-15T12:05:18Z</time>
      </trkpt>
      <trkpt lat="44.64876" lon="4.94133">
        <ele>351.02</ele>
        <time>2021-12-15T12:05:35Z</time>
      </trkpt>
      <trkpt lat="44.64876" lon="4.94133">
        <ele>351.02</ele>
        <time>2021-12-15T12:05:49Z</time>
      </trkpt>
      <trkpt lat="44.64872" lon="4.9413">
        <ele>351.02</ele>
        <time>2021-12-15T12:06:05Z</time>
      </trkpt>
      <trkpt lat="44.64866" lon="4.94138">
        <ele>349.58</ele>
        <time>2021-12-15T12:06:18Z</time>
      </trkpt>
      <trkpt lat="44.64859" lon="4.94145">
        <ele>347.65</ele>
        <time>2021-12-15T12:06:34Z</time>
      </trkpt>
      <trkpt lat="44.64851" lon="4.94147">
        <ele>345.25</ele>
        <time>2021-12-15T12:06:54Z</time>
      </trkpt>
      <trkpt lat="44.64848" lon="4.94157">
        <ele>344.77</ele>
        <time>2021-12-15T12:07:11Z</time>
      </trkpt>
      <trkpt lat="44.64847" lon="4.94167">
        <ele>341.41</ele>
        <time>2021-12-15T12:07:28Z</time>
      </trkpt>
      <trkpt lat="44.64847" lon="4.94172">
        <ele>339.96</ele>
        <time>2021-12-15T12:07:47Z</time>
      </trkpt>
      <trkpt lat="44.64846" lon="4.94185">
        <ele>337.08</ele>
        <time>2021-12-15T12:08:06Z</time>
      </trkpt>
      <trkpt lat="44.64843" lon="4.94205">
        <ele>334.2</ele>
        <time>2021-12-15T12:08:28Z</time>
      </trkpt>
      <trkpt lat="44.64842" lon="4.9422">
        <ele>330.83</ele>
        <time>2021-12-15T12:08:46Z</time>
      </trkpt>
      <trkpt lat="44.64845" lon="4.94234">
        <ele>329.39</ele>
        <time>2021-12-15T12:09:07Z</time>
      </trkpt>
      <trkpt lat="44.64847" lon="4.94247">
        <ele>327.47</ele>
        <time>2021-12-15T12:09:29Z</time>
      </trkpt>
      <trkpt lat="44.64852" lon="4.9426">
        <ele>325.54</ele>
        <time>2021-12-15T12:09:50Z</time>
      </trkpt>
      <trkpt lat="44.64853" lon="4.94272">
        <ele>323.62</ele>
        <time>2021-12-15T12:10:14Z</time>
      </trkpt>
      <trkpt lat="44.64852" lon="4.9429">
        <ele>320.26</ele>
        <time>2021-12-15T12:10:36Z</time>
      </trkpt>
      <trkpt lat="44.64863" lon="4.94303">
        <ele>317.85</ele>
        <time>2021-12-15T12:10:55Z</time>
      </trkpt>
      <trkpt lat="44.64878" lon="4.94312">
        <ele>318.33</ele>
        <time>2021-12-15T12:11:18Z</time>
      </trkpt>
      <trkpt lat="44.64888" lon="4.94319">
        <ele>315.93</ele>
        <time>2021-12-15T12:11:40Z</time>
      </trkpt>
      <trkpt lat="44.64898" lon="4.94328">
        <ele>314.01</ele>
        <time>2021-12-15T12:12:00Z</time>
      </trkpt>
      <trkpt lat="44.649" lon="4.94337">
        <ele>311.12</ele>
        <time>2021-12-15T12:12:21Z</time>
      </trkpt>
      <trkpt lat="44.64887" lon="4.94336">
        <ele>308.72</ele>
        <time>2021-12-15T12:12:39Z</time>
      </trkpt>
      <trkpt lat="44.64875" lon="4.94334">
        <ele>306.32</ele>
        <time>2021-12-15T12:12:57Z</time>
      </trkpt>
      <trkpt lat="44.64867" lon="4.94332">
        <ele>302.95</ele>
        <time>2021-12-15T12:13:08Z</time>
      </trkpt>
      <trkpt lat="44.64854" lon="4.94332">
        <ele>300.07</ele>
        <time>2021-12-15T12:13:30Z</time>
      </trkpt>
      <trkpt lat="44.64845" lon="4.94342">
        <ele>296.7</ele>
        <time>2021-12-15T12:13:49Z</time>
      </trkpt>
      <trkpt lat="44.6484" lon="4.94355">
        <ele>293.82</ele>
        <time>2021-12-15T12:14:03Z</time>
      </trkpt>
      <trkpt lat="44.64835" lon="4.9437">
        <ele>291.42</ele>
        <time>2021-12-15T12:14:20Z</time>
      </trkpt>
      <trkpt lat="44.64832" lon="4.94375">
        <ele>288.05</ele>
        <time>2021-12-15T12:14:33Z</time>
      </trkpt>
      <trkpt lat="44.64823" lon="4.94381">
        <ele>287.09</ele>
        <time>2021-12-15T12:14:50Z</time>
      </trkpt>
      <trkpt lat="44.64817" lon="4.94383">
        <ele>285.17</ele>
        <time>2021-12-15T12:15:09Z</time>
      </trkpt>
      <trkpt lat="44.64816" lon="4.94394">
        <ele>281.8</ele>
        <time>2021-12-15T12:15:27Z</time>
      </trkpt>
      <trkpt lat="44.64814" lon="4.94396">
        <ele>281.32</ele>
        <time>2021-12-15T12:15:29Z</time>
      </trkpt>
      <trkpt lat="44.64813" lon="4.94397">
        <ele>281.32</ele>
        <time>2021-12-15T12:15:30Z</time>
      </trkpt>
      <trkpt lat="44.64807" lon="4.94401">
        <ele>281.32</ele>
        <time>2021-12-15T12:15:44Z</time>
      </trkpt>
      <trkpt lat="44.64807" lon="4.94401">
        <ele>281.8</ele>
        <time>2021-12-15T12:16:08Z</time>
      </trkpt>
      <trkpt lat="44.64807" lon="4.944">
        <ele>281.8</ele>
        <time>2021-12-15T12:16:35Z</time>
      </trkpt>
      <trkpt lat="44.64804" lon="4.94401">
        <ele>281.8</ele>
        <time>2021-12-15T12:16:56Z</time>
      </trkpt>
      <trkpt lat="44.64795" lon="4.94397">
        <ele>279.88</ele>
        <time>2021-12-15T12:17:11Z</time>
      </trkpt>
      <trkpt lat="44.64778" lon="4.94384">
        <ele>277.48</ele>
        <time>2021-12-15T12:17:34Z</time>
      </trkpt>
      <trkpt lat="44.64764" lon="4.94376">
        <ele>275.56</ele>
        <time>2021-12-15T12:17:52Z</time>
      </trkpt>
      <trkpt lat="44.64751" lon="4.94374">
        <ele>273.15</ele>
        <time>2021-12-15T12:18:10Z</time>
      </trkpt>
      <trkpt lat="44.64746" lon="4.94386">
        <ele>269.79</ele>
        <time>2021-12-15T12:18:25Z</time>
      </trkpt>
      <trkpt lat="44.6474" lon="4.94404">
        <ele>266.9</ele>
        <time>2021-12-15T12:18:41Z</time>
      </trkpt>
      <trkpt lat="44.64733" lon="4.94426">
        <ele>263.06</ele>
        <time>2021-12-15T12:19:03Z</time>
      </trkpt>
      <trkpt lat="44.64733" lon="4.94427">
        <ele>263.06</ele>
        <time>2021-12-15T12:19:04Z</time>
      </trkpt>
      <trkpt lat="44.64733" lon="4.9443">
        <ele>261.14</ele>
        <time>2021-12-15T12:19:17Z</time>
      </trkpt>
      <trkpt lat="44.6473" lon="4.94432">
        <ele>260.65</ele>
        <time>2021-12-15T12:19:31Z</time>
      </trkpt>
      <trkpt lat="44.64729" lon="4.94432">
        <ele>260.65</ele>
        <time>2021-12-15T12:19:32Z</time>
      </trkpt>
      <trkpt lat="44.64718" lon="4.94434">
        <ele>260.17</ele>
        <time>2021-12-15T12:19:47Z</time>
      </trkpt>
      <trkpt lat="44.64705" lon="4.94432">
        <ele>259.69</ele>
        <time>2021-12-15T12:20:04Z</time>
      </trkpt>
      <trkpt lat="44.64686" lon="4.94429">
        <ele>257.77</ele>
        <time>2021-12-15T12:20:25Z</time>
      </trkpt>
      <trkpt lat="44.64684" lon="4.94428">
        <ele>257.77</ele>
        <time>2021-12-15T12:20:26Z</time>
      </trkpt>
      <trkpt lat="44.64683" lon="4.94428">
        <ele>257.29</ele>
        <time>2021-12-15T12:20:27Z</time>
      </trkpt>
      <trkpt lat="44.64682" lon="4.94428">
        <ele>257.29</ele>
        <time>2021-12-15T12:20:28Z</time>
      </trkpt>
      <trkpt lat="44.64681" lon="4.94428">
        <ele>257.29</ele>
        <time>2021-12-15T12:20:29Z</time>
      </trkpt>
      <trkpt lat="44.64659" lon="4.94426">
        <ele>256.33</ele>
        <time>2021-12-15T12:20:50Z</time>
      </trkpt>
      <trkpt lat="44.64632" lon="4.94417">
        <ele>253.93</ele>
        <time>2021-12-15T12:21:15Z</time>
      </trkpt>
      <trkpt lat="44.6462" lon="4.94407">
        <ele>252.96</ele>
        <time>2021-12-15T12:21:34Z</time>
      </trkpt>
      <trkpt lat="44.6462" lon="4.94407">
        <ele>253.93</ele>
        <time>2021-12-15T12:21:56Z</time>
      </trkpt>
      <trkpt lat="44.64617" lon="4.94404">
        <ele>252.96</ele>
        <time>2021-12-15T12:22:11Z</time>
      </trkpt>
      <trkpt lat="44.64616" lon="4.94403">
        <ele>252.96</ele>
        <time>2021-12-15T12:22:12Z</time>
      </trkpt>
      <trkpt lat="44.64611" lon="4.94398">
        <ele>251.52</ele>
        <time>2021-12-15T12:22:29Z</time>
      </trkpt>
      <trkpt lat="44.64604" lon="4.94398">
        <ele>252</ele>
        <time>2021-12-15T12:22:45Z</time>
      </trkpt>
      <trkpt lat="44.64607" lon="4.94411">
        <ele>251.04</ele>
        <time>2021-12-15T12:23:03Z</time>
      </trkpt>
      <trkpt lat="44.64608" lon="4.94425">
        <ele>250.08</ele>
        <time>2021-12-15T12:23:20Z</time>
      </trkpt>
      <trkpt lat="44.64608" lon="4.94428">
        <ele>250.08</ele>
        <time>2021-12-15T12:23:22Z</time>
      </trkpt>
      <trkpt lat="44.64608" lon="4.94429">
        <ele>249.6</ele>
        <time>2021-12-15T12:23:23Z</time>
      </trkpt>
      <trkpt lat="44.64614" lon="4.94451">
        <ele>249.6</ele>
        <time>2021-12-15T12:23:45Z</time>
      </trkpt>
      <trkpt lat="44.64614" lon="4.94452">
        <ele>249.6</ele>
        <time>2021-12-15T12:23:46Z</time>
      </trkpt>
      <trkpt lat="44.64615" lon="4.94453">
        <ele>249.6</ele>
        <time>2021-12-15T12:23:47Z</time>
      </trkpt>
      <trkpt lat="44.64616" lon="4.94455">
        <ele>249.6</ele>
        <time>2021-12-15T12:23:48Z</time>
      </trkpt>
      <trkpt lat="44.64627" lon="4.94472">
        <ele>247.2</ele>
        <time>2021-12-15T12:24:07Z</time>
      </trkpt>
      <trkpt lat="44.64633" lon="4.94478">
        <ele>248.16</ele>
        <time>2021-12-15T12:24:14Z</time>
      </trkpt>
      <trkpt lat="44.64649" lon="4.94497">
        <ele>245.75</ele>
        <time>2021-12-15T12:24:33Z</time>
      </trkpt>
      <trkpt lat="44.64656" lon="4.94515">
        <ele>244.79</ele>
        <time>2021-12-15T12:24:52Z</time>
      </trkpt>
      <trkpt lat="44.64655" lon="4.94525">
        <ele>244.79</ele>
        <time>2021-12-15T12:25:02Z</time>
      </trkpt>
      <trkpt lat="44.64655" lon="4.94527">
        <ele>244.79</ele>
        <time>2021-12-15T12:25:03Z</time>
      </trkpt>
      <trkpt lat="44.64654" lon="4.94529">
        <ele>245.27</ele>
        <time>2021-12-15T12:25:04Z</time>
      </trkpt>
      <trkpt lat="44.64641" lon="4.94555">
        <ele>247.2</ele>
        <time>2021-12-15T12:25:25Z</time>
      </trkpt>
      <trkpt lat="44.64627" lon="4.94575">
        <ele>248.64</ele>
        <time>2021-12-15T12:25:45Z</time>
      </trkpt>
      <trkpt lat="44.64619" lon="4.94592">
        <ele>249.6</ele>
        <time>2021-12-15T12:26:01Z</time>
      </trkpt>
      <trkpt lat="44.64608" lon="4.9462">
        <ele>250.56</ele>
        <time>2021-12-15T12:26:23Z</time>
      </trkpt>
      <trkpt lat="44.64602" lon="4.94642">
        <ele>251.52</ele>
        <time>2021-12-15T12:26:40Z</time>
      </trkpt>
      <trkpt lat="44.646" lon="4.94662">
        <ele>252</ele>
        <time>2021-12-15T12:26:56Z</time>
      </trkpt>
      <trkpt lat="44.64593" lon="4.94691">
        <ele>251.52</ele>
        <time>2021-12-15T12:27:13Z</time>
      </trkpt>
      <trkpt lat="44.64586" lon="4.94713">
        <ele>251.52</ele>
        <time>2021-12-15T12:27:28Z</time>
      </trkpt>
      <trkpt lat="44.64586" lon="4.94715">
        <ele>251.52</ele>
        <time>2021-12-15T12:27:29Z</time>
      </trkpt>
      <trkpt lat="44.64577" lon="4.94743">
        <ele>251.04</ele>
        <time>2021-12-15T12:27:48Z</time>
      </trkpt>
      <trkpt lat="44.64566" lon="4.94779">
        <ele>250.56</ele>
        <time>2021-12-15T12:28:13Z</time>
      </trkpt>
      <trkpt lat="44.64559" lon="4.94802">
        <ele>250.08</ele>
        <time>2021-12-15T12:28:30Z</time>
      </trkpt>
      <trkpt lat="44.64551" lon="4.94828">
        <ele>251.52</ele>
        <time>2021-12-15T12:28:47Z</time>
      </trkpt>
      <trkpt lat="44.64545" lon="4.94851">
        <ele>252.96</ele>
        <time>2021-12-15T12:29:03Z</time>
      </trkpt>
      <trkpt lat="44.64545" lon="4.94867">
        <ele>253.44</ele>
        <time>2021-12-15T12:29:20Z</time>
      </trkpt>
      <trkpt lat="44.64545" lon="4.94868">
        <ele>254.89</ele>
        <time>2021-12-15T12:29:40Z</time>
      </trkpt>
      <trkpt lat="44.64545" lon="4.94868">
        <ele>254.41</ele>
        <time>2021-12-15T12:30:24Z</time>
      </trkpt>
      <trkpt lat="44.64545" lon="4.94868">
        <ele>254.41</ele>
        <time>2021-12-15T12:31:08Z</time>
      </trkpt>
      <trkpt lat="44.64544" lon="4.94869">
        <ele>254.41</ele>
        <time>2021-12-15T12:31:43Z</time>
      </trkpt>
      <trkpt lat="44.64539" lon="4.94888">
        <ele>255.37</ele>
        <time>2021-12-15T12:32:01Z</time>
      </trkpt>
      <trkpt lat="44.64531" lon="4.94913">
        <ele>257.29</ele>
        <time>2021-12-15T12:32:22Z</time>
      </trkpt>
      <trkpt lat="44.64525" lon="4.9494">
        <ele>259.21</ele>
        <time>2021-12-15T12:32:43Z</time>
      </trkpt>
      <trkpt lat="44.64519" lon="4.94972">
        <ele>261.62</ele>
        <time>2021-12-15T12:33:07Z</time>
      </trkpt>
      <trkpt lat="44.64518" lon="4.94998">
        <ele>262.58</ele>
        <time>2021-12-15T12:33:27Z</time>
      </trkpt>
      <trkpt lat="44.64518" lon="4.95006">
        <ele>262.58</ele>
        <time>2021-12-15T12:33:40Z</time>
      </trkpt>
      <trkpt lat="44.64518" lon="4.95009">
        <ele>262.58</ele>
        <time>2021-12-15T12:33:42Z</time>
      </trkpt>
      <trkpt lat="44.64518" lon="4.9501">
        <ele>262.58</ele>
        <time>2021-12-15T12:33:43Z</time>
      </trkpt>
      <trkpt lat="44.64516" lon="4.95036">
        <ele>264.98</ele>
        <time>2021-12-15T12:34:03Z</time>
      </trkpt>
      <trkpt lat="44.64515" lon="4.95041">
        <ele>265.46</ele>
        <time>2021-12-15T12:34:07Z</time>
      </trkpt>
      <trkpt lat="44.64514" lon="4.95044">
        <ele>265.46</ele>
        <time>2021-12-15T12:34:09Z</time>
      </trkpt>
      <trkpt lat="44.64514" lon="4.95045">
        <ele>265.46</ele>
        <time>2021-12-15T12:34:10Z</time>
      </trkpt>
      <trkpt lat="44.64512" lon="4.95059">
        <ele>264.98</ele>
        <time>2021-12-15T12:34:21Z</time>
      </trkpt>
      <trkpt lat="44.64512" lon="4.9507">
        <ele>264.98</ele>
        <time>2021-12-15T12:34:30Z</time>
      </trkpt>
      <trkpt lat="44.64511" lon="4.95077">
        <ele>265.46</ele>
        <time>2021-12-15T12:34:35Z</time>
      </trkpt>
      <trkpt lat="44.64507" lon="4.95107">
        <ele>267.38</ele>
        <time>2021-12-15T12:34:57Z</time>
      </trkpt>
      <trkpt lat="44.64507" lon="4.95132">
        <ele>269.31</ele>
        <time>2021-12-15T12:35:15Z</time>
      </trkpt>
      <trkpt lat="44.64508" lon="4.95159">
        <ele>271.23</ele>
        <time>2021-12-15T12:35:36Z</time>
      </trkpt>
      <trkpt lat="44.64508" lon="4.95176">
        <ele>272.67</ele>
        <time>2021-12-15T12:35:52Z</time>
      </trkpt>
      <trkpt lat="44.64507" lon="4.95189">
        <ele>274.59</ele>
        <time>2021-12-15T12:36:11Z</time>
      </trkpt>
      <trkpt lat="44.64507" lon="4.9519">
        <ele>274.11</ele>
        <time>2021-12-15T12:36:37Z</time>
      </trkpt>
      <trkpt lat="44.64504" lon="4.95197">
        <ele>275.07</ele>
        <time>2021-12-15T12:36:56Z</time>
      </trkpt>
      <trkpt lat="44.64502" lon="4.95201">
        <ele>275.07</ele>
        <time>2021-12-15T12:37:00Z</time>
      </trkpt>
      <trkpt lat="44.64502" lon="4.95202">
        <ele>274.59</ele>
        <time>2021-12-15T12:37:01Z</time>
      </trkpt>
      <trkpt lat="44.64501" lon="4.95203">
        <ele>274.59</ele>
        <time>2021-12-15T12:37:02Z</time>
      </trkpt>
      <trkpt lat="44.645" lon="4.95204">
        <ele>274.59</ele>
        <time>2021-12-15T12:37:03Z</time>
      </trkpt>
      <trkpt lat="44.645" lon="4.95206">
        <ele>274.11</ele>
        <time>2021-12-15T12:37:04Z</time>
      </trkpt>
      <trkpt lat="44.64485" lon="4.95223">
        <ele>271.71</ele>
        <time>2021-12-15T12:37:23Z</time>
      </trkpt>
      <trkpt lat="44.64472" lon="4.9523">
        <ele>269.79</ele>
        <time>2021-12-15T12:37:42Z</time>
      </trkpt>
      <trkpt lat="44.64465" lon="4.95229">
        <ele>269.31</ele>
        <time>2021-12-15T12:37:49Z</time>
      </trkpt>
      <trkpt lat="44.64448" lon="4.95226">
        <ele>267.38</ele>
        <time>2021-12-15T12:38:09Z</time>
      </trkpt>
      <trkpt lat="44.64432" lon="4.95224">
        <ele>265.46</ele>
        <time>2021-12-15T12:38:26Z</time>
      </trkpt>
      <trkpt lat="44.64406" lon="4.95229">
        <ele>262.58</ele>
        <time>2021-12-15T12:38:51Z</time>
      </trkpt>
      <trkpt lat="44.64388" lon="4.95235">
        <ele>259.69</ele>
        <time>2021-12-15T12:39:09Z</time>
      </trkpt>
      <trkpt lat="44.64373" lon="4.95239">
        <ele>256.81</ele>
        <time>2021-12-15T12:39:27Z</time>
      </trkpt>
      <trkpt lat="44.64351" lon="4.95238">
        <ele>253.93</ele>
        <time>2021-12-15T12:39:51Z</time>
      </trkpt>
      <trkpt lat="44.64339" lon="4.95236">
        <ele>251.04</ele>
        <time>2021-12-15T12:40:13Z</time>
      </trkpt>
      <trkpt lat="44.64323" lon="4.95236">
        <ele>248.16</ele>
        <time>2021-12-15T12:40:32Z</time>
      </trkpt>
      <trkpt lat="44.64303" lon="4.95236">
        <ele>247.68</ele>
        <time>2021-12-15T12:40:53Z</time>
      </trkpt>
      <trkpt lat="44.64285" lon="4.95232">
        <ele>247.2</ele>
        <time>2021-12-15T12:41:11Z</time>
      </trkpt>
      <trkpt lat="44.64266" lon="4.95222">
        <ele>244.79</ele>
        <time>2021-12-15T12:41:31Z</time>
      </trkpt>
      <trkpt lat="44.64242" lon="4.95221">
        <ele>243.35</ele>
        <time>2021-12-15T12:41:55Z</time>
      </trkpt>
      <trkpt lat="44.64232" lon="4.9525">
        <ele>240.95</ele>
        <time>2021-12-15T12:42:17Z</time>
      </trkpt>
      <trkpt lat="44.64231" lon="4.95252">
        <ele>240.47</ele>
        <time>2021-12-15T12:42:19Z</time>
      </trkpt>
      <trkpt lat="44.64231" lon="4.95254">
        <ele>240.95</ele>
        <time>2021-12-15T12:42:20Z</time>
      </trkpt>
      <trkpt lat="44.6423" lon="4.95255">
        <ele>241.43</ele>
        <time>2021-12-15T12:42:21Z</time>
      </trkpt>
      <trkpt lat="44.64227" lon="4.95269">
        <ele>239.02</ele>
        <time>2021-12-15T12:42:32Z</time>
      </trkpt>
      <trkpt lat="44.64227" lon="4.95272">
        <ele>238.54</ele>
        <time>2021-12-15T12:42:34Z</time>
      </trkpt>
      <trkpt lat="44.64227" lon="4.95273">
        <ele>238.54</ele>
        <time>2021-12-15T12:42:35Z</time>
      </trkpt>
      <trkpt lat="44.64224" lon="4.95305">
        <ele>235.18</ele>
        <time>2021-12-15T12:42:58Z</time>
      </trkpt>
      <trkpt lat="44.64228" lon="4.95343">
        <ele>234.22</ele>
        <time>2021-12-15T12:43:21Z</time>
      </trkpt>
      <trkpt lat="44.64231" lon="4.95379">
        <ele>233.74</ele>
        <time>2021-12-15T12:43:43Z</time>
      </trkpt>
      <trkpt lat="44.64235" lon="4.95414">
        <ele>231.81</ele>
        <time>2021-12-15T12:44:05Z</time>
      </trkpt>
      <trkpt lat="44.64244" lon="4.95439">
        <ele>234.22</ele>
        <time>2021-12-15T12:44:23Z</time>
      </trkpt>
      <trkpt lat="44.64254" lon="4.95465">
        <ele>234.7</ele>
        <time>2021-12-15T12:44:42Z</time>
      </trkpt>
      <trkpt lat="44.64258" lon="4.95492">
        <ele>235.18</ele>
        <time>2021-12-15T12:45:00Z</time>
      </trkpt>
      <trkpt lat="44.64257" lon="4.95493">
        <ele>235.18</ele>
        <time>2021-12-15T12:45:01Z</time>
      </trkpt>
      <trkpt lat="44.64256" lon="4.95525">
        <ele>235.18</ele>
        <time>2021-12-15T12:45:22Z</time>
      </trkpt>
      <trkpt lat="44.64256" lon="4.95541">
        <ele>234.22</ele>
        <time>2021-12-15T12:45:33Z</time>
      </trkpt>
      <trkpt lat="44.64257" lon="4.9558">
        <ele>235.18</ele>
        <time>2021-12-15T12:45:57Z</time>
      </trkpt>
      <trkpt lat="44.64252" lon="4.95583">
        <ele>236.62</ele>
        <time>2021-12-15T12:46:12Z</time>
      </trkpt>
      <trkpt lat="44.64251" lon="4.95581">
        <ele>235.66</ele>
        <time>2021-12-15T12:46:32Z</time>
      </trkpt>
      <trkpt lat="44.64249" lon="4.95578">
        <ele>236.14</ele>
        <time>2021-12-15T12:46:44Z</time>
      </trkpt>
      <trkpt lat="44.64247" lon="4.95574">
        <ele>236.14</ele>
        <time>2021-12-15T12:46:47Z</time>
      </trkpt>
      <trkpt lat="44.64234" lon="4.95561">
        <ele>237.58</ele>
        <time>2021-12-15T12:47:04Z</time>
      </trkpt>
      <trkpt lat="44.64224" lon="4.95552">
        <ele>240.95</ele>
        <time>2021-12-15T12:47:20Z</time>
      </trkpt>
      <trkpt lat="44.64209" lon="4.95543">
        <ele>243.35</ele>
        <time>2021-12-15T12:47:38Z</time>
      </trkpt>
      <trkpt lat="44.64195" lon="4.95538">
        <ele>243.83</ele>
        <time>2021-12-15T12:47:54Z</time>
      </trkpt>
      <trkpt lat="44.64173" lon="4.95534">
        <ele>244.79</ele>
        <time>2021-12-15T12:48:17Z</time>
      </trkpt>
      <trkpt lat="44.64154" lon="4.95538">
        <ele>247.2</ele>
        <time>2021-12-15T12:48:38Z</time>
      </trkpt>
      <trkpt lat="44.64145" lon="4.95544">
        <ele>247.2</ele>
        <time>2021-12-15T12:48:54Z</time>
      </trkpt>
      <trkpt lat="44.64134" lon="4.95555">
        <ele>250.56</ele>
        <time>2021-12-15T12:49:11Z</time>
      </trkpt>
      <trkpt lat="44.64124" lon="4.95568">
        <ele>252.96</ele>
        <time>2021-12-15T12:49:28Z</time>
      </trkpt>
      <trkpt lat="44.64125" lon="4.95578">
        <ele>253.44</ele>
        <time>2021-12-15T12:49:42Z</time>
      </trkpt>
      <trkpt lat="44.64125" lon="4.95579">
        <ele>253.44</ele>
        <time>2021-12-15T12:49:43Z</time>
      </trkpt>
      <trkpt lat="44.64125" lon="4.95581">
        <ele>253.44</ele>
        <time>2021-12-15T12:49:44Z</time>
      </trkpt>
      <trkpt lat="44.64126" lon="4.95582">
        <ele>253.44</ele>
        <time>2021-12-15T12:49:45Z</time>
      </trkpt>
      <trkpt lat="44.64139" lon="4.95608">
        <ele>254.89</ele>
        <time>2021-12-15T12:50:08Z</time>
      </trkpt>
      <trkpt lat="44.64146" lon="4.95624">
        <ele>255.37</ele>
        <time>2021-12-15T12:50:23Z</time>
      </trkpt>
      <trkpt lat="44.64149" lon="4.9564">
        <ele>258.73</ele>
        <time>2021-12-15T12:50:40Z</time>
      </trkpt>
      <trkpt lat="44.64153" lon="4.95658">
        <ele>261.14</ele>
        <time>2021-12-15T12:50:58Z</time>
      </trkpt>
      <trkpt lat="44.64154" lon="4.95679">
        <ele>264.5</ele>
        <time>2021-12-15T12:51:15Z</time>
      </trkpt>
      <trkpt lat="44.64156" lon="4.95699">
        <ele>266.9</ele>
        <time>2021-12-15T12:51:33Z</time>
      </trkpt>
      <trkpt lat="44.64153" lon="4.95718">
        <ele>268.83</ele>
        <time>2021-12-15T12:51:49Z</time>
      </trkpt>
      <trkpt lat="44.64146" lon="4.95733">
        <ele>271.23</ele>
        <time>2021-12-15T12:52:04Z</time>
      </trkpt>
      <trkpt lat="44.64136" lon="4.95751">
        <ele>273.15</ele>
        <time>2021-12-15T12:52:25Z</time>
      </trkpt>
      <trkpt lat="44.64126" lon="4.95768">
        <ele>275.56</ele>
        <time>2021-12-15T12:52:46Z</time>
      </trkpt>
      <trkpt lat="44.64116" lon="4.95777">
        <ele>277.96</ele>
        <time>2021-12-15T12:53:06Z</time>
      </trkpt>
      <trkpt lat="44.64106" lon="4.9578">
        <ele>280.84</ele>
        <time>2021-12-15T12:53:21Z</time>
      </trkpt>
      <trkpt lat="44.64105" lon="4.95781">
        <ele>282.28</ele>
        <time>2021-12-15T12:53:42Z</time>
      </trkpt>
      <trkpt lat="44.64105" lon="4.95781">
        <ele>282.77</ele>
        <time>2021-12-15T12:54:26Z</time>
      </trkpt>
      <trkpt lat="44.64104" lon="4.95782">
        <ele>283.25</ele>
        <time>2021-12-15T12:55:00Z</time>
      </trkpt>
      <trkpt lat="44.64104" lon="4.95782">
        <ele>282.77</ele>
        <time>2021-12-15T12:55:35Z</time>
      </trkpt>
      <trkpt lat="44.64103" lon="4.95782">
        <ele>283.25</ele>
        <time>2021-12-15T12:56:08Z</time>
      </trkpt>
      <trkpt lat="44.64103" lon="4.95782">
        <ele>283.25</ele>
        <time>2021-12-15T12:56:42Z</time>
      </trkpt>
      <trkpt lat="44.64103" lon="4.95782">
        <ele>284.21</ele>
        <time>2021-12-15T12:57:24Z</time>
      </trkpt>
      <trkpt lat="44.64096" lon="4.95791">
        <ele>285.17</ele>
        <time>2021-12-15T12:57:45Z</time>
      </trkpt>
      <trkpt lat="44.64093" lon="4.95811">
        <ele>286.13</ele>
        <time>2021-12-15T12:58:05Z</time>
      </trkpt>
      <trkpt lat="44.64091" lon="4.9583">
        <ele>288.05</ele>
        <time>2021-12-15T12:58:26Z</time>
      </trkpt>
      <trkpt lat="44.64085" lon="4.95843">
        <ele>289.97</ele>
        <time>2021-12-15T12:58:50Z</time>
      </trkpt>
      <trkpt lat="44.64075" lon="4.95851">
        <ele>293.34</ele>
        <time>2021-12-15T12:59:10Z</time>
      </trkpt>
      <trkpt lat="44.64069" lon="4.9586">
        <ele>296.22</ele>
        <time>2021-12-15T12:59:28Z</time>
      </trkpt>
      <trkpt lat="44.64065" lon="4.95881">
        <ele>299.11</ele>
        <time>2021-12-15T12:59:57Z</time>
      </trkpt>
      <trkpt lat="44.64059" lon="4.95905">
        <ele>301.99</ele>
        <time>2021-12-15T13:00:21Z</time>
      </trkpt>
      <trkpt lat="44.64053" lon="4.95928">
        <ele>305.36</ele>
        <time>2021-12-15T13:00:48Z</time>
      </trkpt>
      <trkpt lat="44.64048" lon="4.95941">
        <ele>308.24</ele>
        <time>2021-12-15T13:01:05Z</time>
      </trkpt>
      <trkpt lat="44.64047" lon="4.95955">
        <ele>311.6</ele>
        <time>2021-12-15T13:01:19Z</time>
      </trkpt>
      <trkpt lat="44.64043" lon="4.95986">
        <ele>314.01</ele>
        <time>2021-12-15T13:01:47Z</time>
      </trkpt>
      <trkpt lat="44.64038" lon="4.96005">
        <ele>317.37</ele>
        <time>2021-12-15T13:02:09Z</time>
      </trkpt>
      <trkpt lat="44.64032" lon="4.9602">
        <ele>320.26</ele>
        <time>2021-12-15T13:02:28Z</time>
      </trkpt>
      <trkpt lat="44.64028" lon="4.96035">
        <ele>323.14</ele>
        <time>2021-12-15T13:02:48Z</time>
      </trkpt>
      <trkpt lat="44.64025" lon="4.96058">
        <ele>326.5</ele>
        <time>2021-12-15T13:03:10Z</time>
      </trkpt>
      <trkpt lat="44.64028" lon="4.9608">
        <ele>327.47</ele>
        <time>2021-12-15T13:03:30Z</time>
      </trkpt>
      <trkpt lat="44.64029" lon="4.96102">
        <ele>328.91</ele>
        <time>2021-12-15T13:03:47Z</time>
      </trkpt>
      <trkpt lat="44.64029" lon="4.96113">
        <ele>328.43</ele>
        <time>2021-12-15T13:04:08Z</time>
      </trkpt>
      <trkpt lat="44.64029" lon="4.96113">
        <ele>329.39</ele>
        <time>2021-12-15T13:04:33Z</time>
      </trkpt>
      <trkpt lat="44.64028" lon="4.96122">
        <ele>330.35</ele>
        <time>2021-12-15T13:05:13Z</time>
      </trkpt>
      <trkpt lat="44.64031" lon="4.96146">
        <ele>333.23</ele>
        <time>2021-12-15T13:05:37Z</time>
      </trkpt>
      <trkpt lat="44.64029" lon="4.96171">
        <ele>334.2</ele>
        <time>2021-12-15T13:05:59Z</time>
      </trkpt>
      <trkpt lat="44.6403" lon="4.96203">
        <ele>336.6</ele>
        <time>2021-12-15T13:06:22Z</time>
      </trkpt>
      <trkpt lat="44.64032" lon="4.96229">
        <ele>337.56</ele>
        <time>2021-12-15T13:06:41Z</time>
      </trkpt>
      <trkpt lat="44.64029" lon="4.96245">
        <ele>340.44</ele>
        <time>2021-12-15T13:06:59Z</time>
      </trkpt>
      <trkpt lat="44.64021" lon="4.96262">
        <ele>342.85</ele>
        <time>2021-12-15T13:07:18Z</time>
      </trkpt>
      <trkpt lat="44.64016" lon="4.96274">
        <ele>346.21</ele>
        <time>2021-12-15T13:07:32Z</time>
      </trkpt>
      <trkpt lat="44.6401" lon="4.96286">
        <ele>348.13</ele>
        <time>2021-12-15T13:07:54Z</time>
      </trkpt>
      <trkpt lat="44.6401" lon="4.9629">
        <ele>349.1</ele>
        <time>2021-12-15T13:08:14Z</time>
      </trkpt>
      <trkpt lat="44.6401" lon="4.9629">
        <ele>348.62</ele>
        <time>2021-12-15T13:08:37Z</time>
      </trkpt>
      <trkpt lat="44.6401" lon="4.96291">
        <ele>348.62</ele>
        <time>2021-12-15T13:09:16Z</time>
      </trkpt>
      <trkpt lat="44.6401" lon="4.9629">
        <ele>348.62</ele>
        <time>2021-12-15T13:09:54Z</time>
      </trkpt>
      <trkpt lat="44.6401" lon="4.9629">
        <ele>348.62</ele>
        <time>2021-12-15T13:10:28Z</time>
      </trkpt>
      <trkpt lat="44.6401" lon="4.96291">
        <ele>348.62</ele>
        <time>2021-12-15T13:10:58Z</time>
      </trkpt>
      <trkpt lat="44.6401" lon="4.96292">
        <ele>348.62</ele>
        <time>2021-12-15T13:11:29Z</time>
      </trkpt>
      <trkpt lat="44.6401" lon="4.96293">
        <ele>348.62</ele>
        <time>2021-12-15T13:12:03Z</time>
      </trkpt>
      <trkpt lat="44.6401" lon="4.96293">
        <ele>348.62</ele>
        <time>2021-12-15T13:12:49Z</time>
      </trkpt>
      <trkpt lat="44.6401" lon="4.96293">
        <ele>348.62</ele>
        <time>2021-12-15T13:13:31Z</time>
      </trkpt>
      <trkpt lat="44.6401" lon="4.96294">
        <ele>348.62</ele>
        <time>2021-12-15T13:14:18Z</time>
      </trkpt>
      <trkpt lat="44.64009" lon="4.96293">
        <ele>348.62</ele>
        <time>2021-12-15T13:15:00Z</time>
      </trkpt>
      <trkpt lat="44.64009" lon="4.96293">
        <ele>348.62</ele>
        <time>2021-12-15T13:15:44Z</time>
      </trkpt>
      <trkpt lat="44.64009" lon="4.96293">
        <ele>348.62</ele>
        <time>2021-12-15T13:16:26Z</time>
      </trkpt>
      <trkpt lat="44.64009" lon="4.96293">
        <ele>348.62</ele>
        <time>2021-12-15T13:16:55Z</time>
      </trkpt>
      <trkpt lat="44.64009" lon="4.96292">
        <ele>348.62</ele>
        <time>2021-12-15T13:17:26Z</time>
      </trkpt>
      <trkpt lat="44.64009" lon="4.96293">
        <ele>348.62</ele>
        <time>2021-12-15T13:17:48Z</time>
      </trkpt>
      <trkpt lat="44.64008" lon="4.96292">
        <ele>348.62</ele>
        <time>2021-12-15T13:18:13Z</time>
      </trkpt>
      <trkpt lat="44.64001" lon="4.96281">
        <ele>348.62</ele>
        <time>2021-12-15T13:18:33Z</time>
      </trkpt>
      <trkpt lat="44.63997" lon="4.9627">
        <ele>348.62</ele>
        <time>2021-12-15T13:18:53Z</time>
      </trkpt>
      <trkpt lat="44.63996" lon="4.96263">
        <ele>352.46</ele>
        <time>2021-12-15T13:19:00Z</time>
      </trkpt>
      <trkpt lat="44.63996" lon="4.96262">
        <ele>352.94</ele>
        <time>2021-12-15T13:19:01Z</time>
      </trkpt>
      <trkpt lat="44.63991" lon="4.96246">
        <ele>355.83</ele>
        <time>2021-12-15T13:19:28Z</time>
      </trkpt>
      <trkpt lat="44.63973" lon="4.96218">
        <ele>358.23</ele>
        <time>2021-12-15T13:20:07Z</time>
      </trkpt>
      <trkpt lat="44.6396" lon="4.96201">
        <ele>359.67</ele>
        <time>2021-12-15T13:20:29Z</time>
      </trkpt>
      <trkpt lat="44.6395" lon="4.96184">
        <ele>360.15</ele>
        <time>2021-12-15T13:20:46Z</time>
      </trkpt>
      <trkpt lat="44.63942" lon="4.9617">
        <ele>360.15</ele>
        <time>2021-12-15T13:20:59Z</time>
      </trkpt>
      <trkpt lat="44.63934" lon="4.96157">
        <ele>359.19</ele>
        <time>2021-12-15T13:21:12Z</time>
      </trkpt>
      <trkpt lat="44.63931" lon="4.96127">
        <ele>359.67</ele>
        <time>2021-12-15T13:21:35Z</time>
      </trkpt>
      <trkpt lat="44.63935" lon="4.96109">
        <ele>360.63</ele>
        <time>2021-12-15T13:21:51Z</time>
      </trkpt>
      <trkpt lat="44.63932" lon="4.96084">
        <ele>361.11</ele>
        <time>2021-12-15T13:22:11Z</time>
      </trkpt>
      <trkpt lat="44.63923" lon="4.96055">
        <ele>360.15</ele>
        <time>2021-12-15T13:22:34Z</time>
      </trkpt>
      <trkpt lat="44.63913" lon="4.96029">
        <ele>359.19</ele>
        <time>2021-12-15T13:22:56Z</time>
      </trkpt>
      <trkpt lat="44.63905" lon="4.9601">
        <ele>357.75</ele>
        <time>2021-12-15T13:23:15Z</time>
      </trkpt>
      <trkpt lat="44.63894" lon="4.95997">
        <ele>357.75</ele>
        <time>2021-12-15T13:23:32Z</time>
      </trkpt>
      <trkpt lat="44.6388" lon="4.95998">
        <ele>356.79</ele>
        <time>2021-12-15T13:23:49Z</time>
      </trkpt>
      <trkpt lat="44.63865" lon="4.95989">
        <ele>354.38</ele>
        <time>2021-12-15T13:24:10Z</time>
      </trkpt>
      <trkpt lat="44.63858" lon="4.95983">
        <ele>353.9</ele>
        <time>2021-12-15T13:24:24Z</time>
      </trkpt>
      <trkpt lat="44.63858" lon="4.95984">
        <ele>354.38</ele>
        <time>2021-12-15T13:24:43Z</time>
      </trkpt>
      <trkpt lat="44.63858" lon="4.95984">
        <ele>354.38</ele>
        <time>2021-12-15T13:25:11Z</time>
      </trkpt>
      <trkpt lat="44.63858" lon="4.95984">
        <ele>355.34</ele>
        <time>2021-12-15T13:25:27Z</time>
      </trkpt>
      <trkpt lat="44.63859" lon="4.9598">
        <ele>355.34</ele>
        <time>2021-12-15T13:25:51Z</time>
      </trkpt>
      <trkpt lat="44.63858" lon="4.95982">
        <ele>355.34</ele>
        <time>2021-12-15T13:26:08Z</time>
      </trkpt>
      <trkpt lat="44.63856" lon="4.9599">
        <ele>355.34</ele>
        <time>2021-12-15T13:26:23Z</time>
      </trkpt>
      <trkpt lat="44.63852" lon="4.96006">
        <ele>353.9</ele>
        <time>2021-12-15T13:26:40Z</time>
      </trkpt>
      <trkpt lat="44.63847" lon="4.96009">
        <ele>352.94</ele>
        <time>2021-12-15T13:26:52Z</time>
      </trkpt>
      <trkpt lat="44.63838" lon="4.96022">
        <ele>352.46</ele>
        <time>2021-12-15T13:27:08Z</time>
      </trkpt>
      <trkpt lat="44.6383" lon="4.96038">
        <ele>351.02</ele>
        <time>2021-12-15T13:27:24Z</time>
      </trkpt>
      <trkpt lat="44.6382" lon="4.96046">
        <ele>347.65</ele>
        <time>2021-12-15T13:27:44Z</time>
      </trkpt>
      <trkpt lat="44.63814" lon="4.96046">
        <ele>344.77</ele>
        <time>2021-12-15T13:27:55Z</time>
      </trkpt>
      <trkpt lat="44.63813" lon="4.96045">
        <ele>344.77</ele>
        <time>2021-12-15T13:27:56Z</time>
      </trkpt>
      <trkpt lat="44.63812" lon="4.96045">
        <ele>344.29</ele>
        <time>2021-12-15T13:27:57Z</time>
      </trkpt>
      <trkpt lat="44.63803" lon="4.96038">
        <ele>341.41</ele>
        <time>2021-12-15T13:28:10Z</time>
      </trkpt>
      <trkpt lat="44.63794" lon="4.96031">
        <ele>338.04</ele>
        <time>2021-12-15T13:28:26Z</time>
      </trkpt>
      <trkpt lat="44.63785" lon="4.96027">
        <ele>335.16</ele>
        <time>2021-12-15T13:28:39Z</time>
      </trkpt>
      <trkpt lat="44.63778" lon="4.96023">
        <ele>331.79</ele>
        <time>2021-12-15T13:28:52Z</time>
      </trkpt>
      <trkpt lat="44.63767" lon="4.96014">
        <ele>328.91</ele>
        <time>2021-12-15T13:29:10Z</time>
      </trkpt>
      <trkpt lat="44.63755" lon="4.96005">
        <ele>325.54</ele>
        <time>2021-12-15T13:29:29Z</time>
      </trkpt>
      <trkpt lat="44.63744" lon="4.96003">
        <ele>322.18</ele>
        <time>2021-12-15T13:29:45Z</time>
      </trkpt>
      <trkpt lat="44.63739" lon="4.95999">
        <ele>321.22</ele>
        <time>2021-12-15T13:30:03Z</time>
      </trkpt>
      <trkpt lat="44.6374" lon="4.95998">
        <ele>321.22</ele>
        <time>2021-12-15T13:30:37Z</time>
      </trkpt>
      <trkpt lat="44.6374" lon="4.96">
        <ele>320.74</ele>
        <time>2021-12-15T13:31:01Z</time>
      </trkpt>
      <trkpt lat="44.63737" lon="4.96005">
        <ele>320.26</ele>
        <time>2021-12-15T13:31:22Z</time>
      </trkpt>
      <trkpt lat="44.63739" lon="4.96014">
        <ele>317.37</ele>
        <time>2021-12-15T13:31:37Z</time>
      </trkpt>
      <trkpt lat="44.63748" lon="4.96024">
        <ele>316.41</ele>
        <time>2021-12-15T13:31:48Z</time>
      </trkpt>
      <trkpt lat="44.63753" lon="4.96048">
        <ele>313.05</ele>
        <time>2021-12-15T13:32:09Z</time>
      </trkpt>
      <trkpt lat="44.63753" lon="4.9605">
        <ele>313.05</ele>
        <time>2021-12-15T13:32:10Z</time>
      </trkpt>
      <trkpt lat="44.63758" lon="4.96065">
        <ele>312.57</ele>
        <time>2021-12-15T13:32:25Z</time>
      </trkpt>
      <trkpt lat="44.6376" lon="4.96068">
        <ele>312.09</ele>
        <time>2021-12-15T13:32:37Z</time>
      </trkpt>
      <trkpt lat="44.63761" lon="4.9607">
        <ele>312.09</ele>
        <time>2021-12-15T13:32:39Z</time>
      </trkpt>
      <trkpt lat="44.63772" lon="4.96083">
        <ele>311.12</ele>
        <time>2021-12-15T13:32:52Z</time>
      </trkpt>
      <trkpt lat="44.63786" lon="4.96098">
        <ele>312.57</ele>
        <time>2021-12-15T13:33:09Z</time>
      </trkpt>
      <trkpt lat="44.63797" lon="4.96119">
        <ele>312.57</ele>
        <time>2021-12-15T13:33:26Z</time>
      </trkpt>
      <trkpt lat="44.63797" lon="4.96141">
        <ele>310.16</ele>
        <time>2021-12-15T13:33:44Z</time>
      </trkpt>
      <trkpt lat="44.63798" lon="4.96157">
        <ele>307.28</ele>
        <time>2021-12-15T13:33:58Z</time>
      </trkpt>
      <trkpt lat="44.63799" lon="4.96172">
        <ele>303.91</ele>
        <time>2021-12-15T13:34:13Z</time>
      </trkpt>
      <trkpt lat="44.63792" lon="4.96179">
        <ele>301.03</ele>
        <time>2021-12-15T13:34:27Z</time>
      </trkpt>
      <trkpt lat="44.6378" lon="4.96171">
        <ele>297.67</ele>
        <time>2021-12-15T13:34:42Z</time>
      </trkpt>
      <trkpt lat="44.63768" lon="4.96168">
        <ele>295.26</ele>
        <time>2021-12-15T13:35:01Z</time>
      </trkpt>
      <trkpt lat="44.63761" lon="4.96174">
        <ele>291.9</ele>
        <time>2021-12-15T13:35:16Z</time>
      </trkpt>
      <trkpt lat="44.63755" lon="4.96182">
        <ele>289.01</ele>
        <time>2021-12-15T13:35:29Z</time>
      </trkpt>
      <trkpt lat="44.63753" lon="4.962">
        <ele>285.65</ele>
        <time>2021-12-15T13:35:46Z</time>
      </trkpt>
      <trkpt lat="44.63745" lon="4.96209">
        <ele>282.77</ele>
        <time>2021-12-15T13:35:59Z</time>
      </trkpt>
      <trkpt lat="44.63735" lon="4.96216">
        <ele>279.4</ele>
        <time>2021-12-15T13:36:13Z</time>
      </trkpt>
      <trkpt lat="44.63726" lon="4.96224">
        <ele>276.52</ele>
        <time>2021-12-15T13:36:25Z</time>
      </trkpt>
      <trkpt lat="44.63722" lon="4.96226">
        <ele>275.07</ele>
        <time>2021-12-15T13:36:29Z</time>
      </trkpt>
      <trkpt lat="44.63713" lon="4.96232">
        <ele>272.19</ele>
        <time>2021-12-15T13:36:41Z</time>
      </trkpt>
      <trkpt lat="44.63711" lon="4.96236">
        <ele>271.23</ele>
        <time>2021-12-15T13:36:45Z</time>
      </trkpt>
      <trkpt lat="44.63701" lon="4.96257">
        <ele>267.86</ele>
        <time>2021-12-15T13:37:03Z</time>
      </trkpt>
      <trkpt lat="44.63693" lon="4.96275">
        <ele>264.5</ele>
        <time>2021-12-15T13:37:20Z</time>
      </trkpt>
      <trkpt lat="44.6369" lon="4.96287">
        <ele>261.62</ele>
        <time>2021-12-15T13:37:30Z</time>
      </trkpt>
      <trkpt lat="44.63691" lon="4.96303">
        <ele>259.21</ele>
        <time>2021-12-15T13:37:44Z</time>
      </trkpt>
      <trkpt lat="44.63691" lon="4.96304">
        <ele>259.21</ele>
        <time>2021-12-15T13:37:45Z</time>
      </trkpt>
      <trkpt lat="44.63692" lon="4.96305">
        <ele>259.21</ele>
        <time>2021-12-15T13:37:46Z</time>
      </trkpt>
      <trkpt lat="44.63693" lon="4.96307">
        <ele>258.73</ele>
        <time>2021-12-15T13:37:47Z</time>
      </trkpt>
      <trkpt lat="44.63694" lon="4.96308">
        <ele>258.73</ele>
        <time>2021-12-15T13:37:48Z</time>
      </trkpt>
      <trkpt lat="44.63695" lon="4.96309">
        <ele>258.25</ele>
        <time>2021-12-15T13:37:49Z</time>
      </trkpt>
      <trkpt lat="44.63696" lon="4.9631">
        <ele>258.25</ele>
        <time>2021-12-15T13:37:50Z</time>
      </trkpt>
      <trkpt lat="44.63696" lon="4.96311">
        <ele>258.25</ele>
        <time>2021-12-15T13:37:51Z</time>
      </trkpt>
      <trkpt lat="44.63701" lon="4.9632">
        <ele>257.29</ele>
        <time>2021-12-15T13:38:09Z</time>
      </trkpt>
      <trkpt lat="44.63701" lon="4.9632">
        <ele>257.77</ele>
        <time>2021-12-15T13:38:31Z</time>
      </trkpt>
      <trkpt lat="44.63703" lon="4.96318">
        <ele>257.77</ele>
        <time>2021-12-15T13:38:47Z</time>
      </trkpt>
      <trkpt lat="44.63705" lon="4.96324">
        <ele>257.77</ele>
        <time>2021-12-15T13:39:00Z</time>
      </trkpt>
      <trkpt lat="44.63705" lon="4.96322">
        <ele>257.77</ele>
        <time>2021-12-15T13:39:21Z</time>
      </trkpt>
      <trkpt lat="44.63704" lon="4.96322">
        <ele>257.77</ele>
        <time>2021-12-15T13:39:59Z</time>
      </trkpt>
      <trkpt lat="44.63705" lon="4.96322">
        <ele>257.77</ele>
        <time>2021-12-15T13:40:27Z</time>
      </trkpt>
      <trkpt lat="44.63705" lon="4.96321">
        <ele>257.77</ele>
        <time>2021-12-15T13:40:55Z</time>
      </trkpt>
      <trkpt lat="44.63704" lon="4.96321">
        <ele>257.77</ele>
        <time>2021-12-15T13:41:18Z</time>
      </trkpt>
      <trkpt lat="44.63707" lon="4.96321">
        <ele>257.77</ele>
        <time>2021-12-15T13:41:33Z</time>
      </trkpt>
      <trkpt lat="44.63706" lon="4.96322">
        <ele>257.77</ele>
        <time>2021-12-15T13:41:51Z</time>
      </trkpt>
      <trkpt lat="44.63709" lon="4.96324">
        <ele>257.77</ele>
        <time>2021-12-15T13:42:02Z</time>
      </trkpt>
      <trkpt lat="44.63712" lon="4.96323">
        <ele>256.33</ele>
        <time>2021-12-15T13:42:07Z</time>
      </trkpt>
      <trkpt lat="44.6371" lon="4.96324">
        <ele>256.81</ele>
        <time>2021-12-15T13:42:25Z</time>
      </trkpt>
      <trkpt lat="44.63705" lon="4.96324">
        <ele>256.81</ele>
        <time>2021-12-15T13:42:40Z</time>
      </trkpt>
      <trkpt lat="44.63705" lon="4.96324">
        <ele>256.33</ele>
        <time>2021-12-15T13:43:15Z</time>
      </trkpt>
      <trkpt lat="44.63709" lon="4.96337">
        <ele>256.33</ele>
        <time>2021-12-15T13:43:35Z</time>
      </trkpt>
      <trkpt lat="44.63705" lon="4.96353">
        <ele>255.37</ele>
        <time>2021-12-15T13:43:53Z</time>
      </trkpt>
      <trkpt lat="44.63697" lon="4.9637">
        <ele>252.48</ele>
        <time>2021-12-15T13:44:10Z</time>
      </trkpt>
      <trkpt lat="44.63689" lon="4.96377">
        <ele>250.56</ele>
        <time>2021-12-15T13:44:21Z</time>
      </trkpt>
      <trkpt lat="44.63674" lon="4.96375">
        <ele>248.64</ele>
        <time>2021-12-15T13:44:37Z</time>
      </trkpt>
      <trkpt lat="44.63655" lon="4.96375">
        <ele>246.72</ele>
        <time>2021-12-15T13:44:56Z</time>
      </trkpt>
      <trkpt lat="44.6364" lon="4.96375">
        <ele>243.83</ele>
        <time>2021-12-15T13:45:15Z</time>
      </trkpt>
      <trkpt lat="44.63642" lon="4.96392">
        <ele>241.43</ele>
        <time>2021-12-15T13:45:32Z</time>
      </trkpt>
      <trkpt lat="44.63645" lon="4.96396">
        <ele>241.43</ele>
        <time>2021-12-15T13:45:50Z</time>
      </trkpt>
      <trkpt lat="44.63647" lon="4.96397">
        <ele>241.43</ele>
        <time>2021-12-15T13:46:06Z</time>
      </trkpt>
      <trkpt lat="44.63647" lon="4.96397">
        <ele>241.43</ele>
        <time>2021-12-15T13:46:38Z</time>
      </trkpt>
      <trkpt lat="44.63646" lon="4.96405">
        <ele>241.43</ele>
        <time>2021-12-15T13:47:00Z</time>
      </trkpt>
      <trkpt lat="44.63649" lon="4.96418">
        <ele>241.43</ele>
        <time>2021-12-15T13:47:16Z</time>
      </trkpt>
      <trkpt lat="44.63658" lon="4.9643">
        <ele>239.99</ele>
        <time>2021-12-15T13:47:35Z</time>
      </trkpt>
      <trkpt lat="44.63661" lon="4.96434">
        <ele>240.47</ele>
        <time>2021-12-15T13:47:56Z</time>
      </trkpt>
      <trkpt lat="44.63666" lon="4.96446">
        <ele>239.51</ele>
        <time>2021-12-15T13:48:12Z</time>
      </trkpt>
      <trkpt lat="44.63668" lon="4.96466">
        <ele>238.54</ele>
        <time>2021-12-15T13:48:30Z</time>
      </trkpt>
      <trkpt lat="44.63668" lon="4.96488">
        <ele>236.14</ele>
        <time>2021-12-15T13:48:49Z</time>
      </trkpt>
      <trkpt lat="44.63667" lon="4.9649">
        <ele>236.14</ele>
        <time>2021-12-15T13:48:51Z</time>
      </trkpt>
      <trkpt lat="44.63667" lon="4.96496">
        <ele>235.18</ele>
        <time>2021-12-15T13:48:55Z</time>
      </trkpt>
      <trkpt lat="44.63666" lon="4.96497">
        <ele>235.18</ele>
        <time>2021-12-15T13:48:56Z</time>
      </trkpt>
      <trkpt lat="44.63666" lon="4.96499">
        <ele>235.18</ele>
        <time>2021-12-15T13:48:57Z</time>
      </trkpt>
      <trkpt lat="44.63665" lon="4.965">
        <ele>235.18</ele>
        <time>2021-12-15T13:48:58Z</time>
      </trkpt>
      <trkpt lat="44.63662" lon="4.96506">
        <ele>234.7</ele>
        <time>2021-12-15T13:49:19Z</time>
      </trkpt>
      <trkpt lat="44.63658" lon="4.9652">
        <ele>234.22</ele>
        <time>2021-12-15T13:49:48Z</time>
      </trkpt>
      <trkpt lat="44.63651" lon="4.96545">
        <ele>232.78</ele>
        <time>2021-12-15T13:50:10Z</time>
      </trkpt>
      <trkpt lat="44.63643" lon="4.96573">
        <ele>232.3</ele>
        <time>2021-12-15T13:50:30Z</time>
      </trkpt>
      <trkpt lat="44.63635" lon="4.96605">
        <ele>230.85</ele>
        <time>2021-12-15T13:50:53Z</time>
      </trkpt>
      <trkpt lat="44.6363" lon="4.96637">
        <ele>228.93</ele>
        <time>2021-12-15T13:51:16Z</time>
      </trkpt>
      <trkpt lat="44.63621" lon="4.96666">
        <ele>225.57</ele>
        <time>2021-12-15T13:51:37Z</time>
      </trkpt>
      <trkpt lat="44.63602" lon="4.96676">
        <ele>224.12</ele>
        <time>2021-12-15T13:51:55Z</time>
      </trkpt>
      <trkpt lat="44.63574" lon="4.96688">
        <ele>222.2</ele>
        <time>2021-12-15T13:52:20Z</time>
      </trkpt>
      <trkpt lat="44.63546" lon="4.96698">
        <ele>220.76</ele>
        <time>2021-12-15T13:52:46Z</time>
      </trkpt>
      <trkpt lat="44.63526" lon="4.96704">
        <ele>220.76</ele>
        <time>2021-12-15T13:53:05Z</time>
      </trkpt>
      <trkpt lat="44.63522" lon="4.96706">
        <ele>219.8</ele>
        <time>2021-12-15T13:53:18Z</time>
      </trkpt>
      <trkpt lat="44.63507" lon="4.96729">
        <ele>218.84</ele>
        <time>2021-12-15T13:53:39Z</time>
      </trkpt>
      <trkpt lat="44.63504" lon="4.96738">
        <ele>218.36</ele>
        <time>2021-12-15T13:53:46Z</time>
      </trkpt>
      <trkpt lat="44.63504" lon="4.96739">
        <ele>218.36</ele>
        <time>2021-12-15T13:53:47Z</time>
      </trkpt>
      <trkpt lat="44.63501" lon="4.96751">
        <ele>217.4</ele>
        <time>2021-12-15T13:53:55Z</time>
      </trkpt>
      <trkpt lat="44.63499" lon="4.96753">
        <ele>215.95</ele>
        <time>2021-12-15T13:54:06Z</time>
      </trkpt>
      <trkpt lat="44.63498" lon="4.96753">
        <ele>217.88</ele>
        <time>2021-12-15T13:54:13Z</time>
      </trkpt>
      <trkpt lat="44.63497" lon="4.96758">
        <ele>217.4</ele>
        <time>2021-12-15T13:54:29Z</time>
      </trkpt>
      <trkpt lat="44.63493" lon="4.96769">
        <ele>216.43</ele>
        <time>2021-12-15T13:54:47Z</time>
      </trkpt>
      <trkpt lat="44.6349" lon="4.96776">
        <ele>218.84</ele>
        <time>2021-12-15T13:54:54Z</time>
      </trkpt>
      <trkpt lat="44.63484" lon="4.96783">
        <ele>217.4</ele>
        <time>2021-12-15T13:55:10Z</time>
      </trkpt>
      <trkpt lat="44.63482" lon="4.96785">
        <ele>216.91</ele>
        <time>2021-12-15T13:55:15Z</time>
      </trkpt>
      <trkpt lat="44.63481" lon="4.96785">
        <ele>216.91</ele>
        <time>2021-12-15T13:55:16Z</time>
      </trkpt>
      <trkpt lat="44.6348" lon="4.96786">
        <ele>216.91</ele>
        <time>2021-12-15T13:55:17Z</time>
      </trkpt>
      <trkpt lat="44.63479" lon="4.96787">
        <ele>216.91</ele>
        <time>2021-12-15T13:55:18Z</time>
      </trkpt>
      <trkpt lat="44.63478" lon="4.96788">
        <ele>216.43</ele>
        <time>2021-12-15T13:55:19Z</time>
      </trkpt>
      <trkpt lat="44.63477" lon="4.96788">
        <ele>216.43</ele>
        <time>2021-12-15T13:55:20Z</time>
      </trkpt>
      <trkpt lat="44.63476" lon="4.96789">
        <ele>216.43</ele>
        <time>2021-12-15T13:55:21Z</time>
      </trkpt>
      <trkpt lat="44.63475" lon="4.96789">
        <ele>216.43</ele>
        <time>2021-12-15T13:55:22Z</time>
      </trkpt>
      <trkpt lat="44.63474" lon="4.96789">
        <ele>216.43</ele>
        <time>2021-12-15T13:55:23Z</time>
      </trkpt>
      <trkpt lat="44.6345" lon="4.96797">
        <ele>215.95</ele>
        <time>2021-12-15T13:55:44Z</time>
      </trkpt>
      <trkpt lat="44.63428" lon="4.96808">
        <ele>215.47</ele>
        <time>2021-12-15T13:56:04Z</time>
      </trkpt>
      <trkpt lat="44.63426" lon="4.96809">
        <ele>215.47</ele>
        <time>2021-12-15T13:56:06Z</time>
      </trkpt>
      <trkpt lat="44.63424" lon="4.9681">
        <ele>215.47</ele>
        <time>2021-12-15T13:56:08Z</time>
      </trkpt>
      <trkpt lat="44.63399" lon="4.96824">
        <ele>215.47</ele>
        <time>2021-12-15T13:56:30Z</time>
      </trkpt>
      <trkpt lat="44.63376" lon="4.96834">
        <ele>214.03</ele>
        <time>2021-12-15T13:56:51Z</time>
      </trkpt>
      <trkpt lat="44.63369" lon="4.96836">
        <ele>214.03</ele>
        <time>2021-12-15T13:56:58Z</time>
      </trkpt>
      <trkpt lat="44.63368" lon="4.96836">
        <ele>214.03</ele>
        <time>2021-12-15T13:56:59Z</time>
      </trkpt>
      <trkpt lat="44.63365" lon="4.96836">
        <ele>213.55</ele>
        <time>2021-12-15T13:57:14Z</time>
      </trkpt>
      <trkpt lat="44.63361" lon="4.96837">
        <ele>213.55</ele>
        <time>2021-12-15T13:57:33Z</time>
      </trkpt>
      <trkpt lat="44.63354" lon="4.96841">
        <ele>213.07</ele>
        <time>2021-12-15T13:57:48Z</time>
      </trkpt>
      <trkpt lat="44.63344" lon="4.96846">
        <ele>212.59</ele>
        <time>2021-12-15T13:58:07Z</time>
      </trkpt>
      <trkpt lat="44.63326" lon="4.96852">
        <ele>211.63</ele>
        <time>2021-12-15T13:58:25Z</time>
      </trkpt>
      <trkpt lat="44.63309" lon="4.96858">
        <ele>211.63</ele>
        <time>2021-12-15T13:58:45Z</time>
      </trkpt>
      <trkpt lat="44.63288" lon="4.96865">
        <ele>210.67</ele>
        <time>2021-12-15T13:59:07Z</time>
      </trkpt>
      <trkpt lat="44.63258" lon="4.96873">
        <ele>210.19</ele>
        <time>2021-12-15T13:59:35Z</time>
      </trkpt>
      <trkpt lat="44.63235" lon="4.96879">
        <ele>209.7</ele>
        <time>2021-12-15T13:59:57Z</time>
      </trkpt>
      <trkpt lat="44.63213" lon="4.96886">
        <ele>209.22</ele>
        <time>2021-12-15T14:00:18Z</time>
      </trkpt>
      <trkpt lat="44.63189" lon="4.96894">
        <ele>209.22</ele>
        <time>2021-12-15T14:00:40Z</time>
      </trkpt>
      <trkpt lat="44.6316" lon="4.96902">
        <ele>208.74</ele>
        <time>2021-12-15T14:01:06Z</time>
      </trkpt>
      <trkpt lat="44.63141" lon="4.96915">
        <ele>208.74</ele>
        <time>2021-12-15T14:01:26Z</time>
      </trkpt>
      <trkpt lat="44.63127" lon="4.96945">
        <ele>210.19</ele>
        <time>2021-12-15T14:01:48Z</time>
      </trkpt>
      <trkpt lat="44.63107" lon="4.96977">
        <ele>210.19</ele>
        <time>2021-12-15T14:02:14Z</time>
      </trkpt>
      <trkpt lat="44.63092" lon="4.97001">
        <ele>211.15</ele>
        <time>2021-12-15T14:02:35Z</time>
      </trkpt>
      <trkpt lat="44.63074" lon="4.97024">
        <ele>211.15</ele>
        <time>2021-12-15T14:02:57Z</time>
      </trkpt>
      <trkpt lat="44.63062" lon="4.97034">
        <ele>211.63</ele>
        <time>2021-12-15T14:03:15Z</time>
      </trkpt>
      <trkpt lat="44.63045" lon="4.97037">
        <ele>212.11</ele>
        <time>2021-12-15T14:03:33Z</time>
      </trkpt>
      <trkpt lat="44.63029" lon="4.97038">
        <ele>212.59</ele>
        <time>2021-12-15T14:03:51Z</time>
      </trkpt>
      <trkpt lat="44.63003" lon="4.9704">
        <ele>212.59</ele>
        <time>2021-12-15T14:04:16Z</time>
      </trkpt>
      <trkpt lat="44.6299" lon="4.97042">
        <ele>213.55</ele>
        <time>2021-12-15T14:04:31Z</time>
      </trkpt>
      <trkpt lat="44.62988" lon="4.97042">
        <ele>213.55</ele>
        <time>2021-12-15T14:04:33Z</time>
      </trkpt>
      <trkpt lat="44.62987" lon="4.97042">
        <ele>213.55</ele>
        <time>2021-12-15T14:04:34Z</time>
      </trkpt>
      <trkpt lat="44.62986" lon="4.97042">
        <ele>213.55</ele>
        <time>2021-12-15T14:04:35Z</time>
      </trkpt>
      <trkpt lat="44.62967" lon="4.97043">
        <ele>214.03</ele>
        <time>2021-12-15T14:04:53Z</time>
      </trkpt>
      <trkpt lat="44.62949" lon="4.97044">
        <ele>214.51</ele>
        <time>2021-12-15T14:05:11Z</time>
      </trkpt>
      <trkpt lat="44.62923" lon="4.97046">
        <ele>214.99</ele>
        <time>2021-12-15T14:05:35Z</time>
      </trkpt>
      <trkpt lat="44.6291" lon="4.97048">
        <ele>214.99</ele>
        <time>2021-12-15T14:05:51Z</time>
      </trkpt>
      <trkpt lat="44.62897" lon="4.97051">
        <ele>214.99</ele>
        <time>2021-12-15T14:06:06Z</time>
      </trkpt>
      <trkpt lat="44.6288" lon="4.97055">
        <ele>214.51</ele>
        <time>2021-12-15T14:06:24Z</time>
      </trkpt>
      <trkpt lat="44.62861" lon="4.97057">
        <ele>213.55</ele>
        <time>2021-12-15T14:06:42Z</time>
      </trkpt>
      <trkpt lat="44.62847" lon="4.97068">
        <ele>212.59</ele>
        <time>2021-12-15T14:06:59Z</time>
      </trkpt>
      <trkpt lat="44.62831" lon="4.97081">
        <ele>211.63</ele>
        <time>2021-12-15T14:07:19Z</time>
      </trkpt>
      <trkpt lat="44.62827" lon="4.97085">
        <ele>211.15</ele>
        <time>2021-12-15T14:07:24Z</time>
      </trkpt>
      <trkpt lat="44.62825" lon="4.97088">
        <ele>211.15</ele>
        <time>2021-12-15T14:07:28Z</time>
      </trkpt>
      <trkpt lat="44.62824" lon="4.97092">
        <ele>210.67</ele>
        <time>2021-12-15T14:07:31Z</time>
      </trkpt>
      <trkpt lat="44.62821" lon="4.97123">
        <ele>212.11</ele>
        <time>2021-12-15T14:07:54Z</time>
      </trkpt>
      <trkpt lat="44.62821" lon="4.97153">
        <ele>214.03</ele>
        <time>2021-12-15T14:08:17Z</time>
      </trkpt>
      <trkpt lat="44.62819" lon="4.97182">
        <ele>216.43</ele>
        <time>2021-12-15T14:08:39Z</time>
      </trkpt>
      <trkpt lat="44.62818" lon="4.97206">
        <ele>216.91</ele>
        <time>2021-12-15T14:08:58Z</time>
      </trkpt>
      <trkpt lat="44.62811" lon="4.97223">
        <ele>216.91</ele>
        <time>2021-12-15T14:09:21Z</time>
      </trkpt>
      <trkpt lat="44.62805" lon="4.9725">
        <ele>215.95</ele>
        <time>2021-12-15T14:09:41Z</time>
      </trkpt>
      <trkpt lat="44.6279" lon="4.97261">
        <ele>214.03</ele>
        <time>2021-12-15T14:10:02Z</time>
      </trkpt>
      <trkpt lat="44.62777" lon="4.97277">
        <ele>212.11</ele>
        <time>2021-12-15T14:10:24Z</time>
      </trkpt>
      <trkpt lat="44.62776" lon="4.97278">
        <ele>212.11</ele>
        <time>2021-12-15T14:10:25Z</time>
      </trkpt>
      <trkpt lat="44.62769" lon="4.97283">
        <ele>211.63</ele>
        <time>2021-12-15T14:10:33Z</time>
      </trkpt>
      <trkpt lat="44.62754" lon="4.97289">
        <ele>210.67</ele>
        <time>2021-12-15T14:10:51Z</time>
      </trkpt>
      <trkpt lat="44.6274" lon="4.97294">
        <ele>209.7</ele>
        <time>2021-12-15T14:11:10Z</time>
      </trkpt>
      <trkpt lat="44.62711" lon="4.97304">
        <ele>209.22</ele>
        <time>2021-12-15T14:11:38Z</time>
      </trkpt>
      <trkpt lat="44.62702" lon="4.97314">
        <ele>208.74</ele>
        <time>2021-12-15T14:11:54Z</time>
      </trkpt>
      <trkpt lat="44.62703" lon="4.97319">
        <ele>208.74</ele>
        <time>2021-12-15T14:12:07Z</time>
      </trkpt>
      <trkpt lat="44.62702" lon="4.97318">
        <ele>209.22</ele>
        <time>2021-12-15T14:12:26Z</time>
      </trkpt>
      <trkpt lat="44.62701" lon="4.97318">
        <ele>209.7</ele>
        <time>2021-12-15T14:12:46Z</time>
      </trkpt>
      <trkpt lat="44.62701" lon="4.97318">
        <ele>205.86</ele>
        <time>2021-12-15T14:12:55Z</time>
      </trkpt>
      <trkpt lat="44.62701" lon="4.97318">
        <ele>202.98</ele>
        <time>2021-12-15T14:12:58Z</time>
      </trkpt>
      <trkpt lat="44.62701" lon="4.97318">
        <ele>202.01</ele>
        <time>2021-12-15T14:13:00Z</time>
      </trkpt>
      <trkpt lat="44.62701" lon="4.97318">
        <ele>206.82</ele>
        <time>2021-12-15T14:13:04Z</time>
      </trkpt>
      <trkpt lat="44.62701" lon="4.97318">
        <ele>210.19</ele>
        <time>2021-12-15T14:13:06Z</time>
      </trkpt>
      <trkpt lat="44.62701" lon="4.97318">
        <ele>210.19</ele>
        <time>2021-12-15T14:13:07Z</time>
      </trkpt>
      <trkpt lat="44.62701" lon="4.97318">
        <ele>206.82</ele>
        <time>2021-12-15T14:13:12Z</time>
      </trkpt>
      <trkpt lat="44.62701" lon="4.97318">
        <ele>210.19</ele>
        <time>2021-12-15T14:13:21Z</time>
      </trkpt>
      <trkpt lat="44.62701" lon="4.97318">
        <ele>213.07</ele>
        <time>2021-12-15T14:13:24Z</time>
      </trkpt>
      <trkpt lat="44.62701" lon="4.97318">
        <ele>213.55</ele>
        <time>2021-12-15T14:13:25Z</time>
      </trkpt>
      <trkpt lat="44.62701" lon="4.97318">
        <ele>210.19</ele>
        <time>2021-12-15T14:13:29Z</time>
      </trkpt>
      <trkpt lat="44.62701" lon="4.97318">
        <ele>208.26</ele>
        <time>2021-12-15T14:13:39Z</time>
      </trkpt>
      <trkpt lat="44.62701" lon="4.97318">
        <ele>212.59</ele>
        <time>2021-12-15T14:13:43Z</time>
      </trkpt>
      <trkpt lat="44.62701" lon="4.97318">
        <ele>207.3</ele>
        <time>2021-12-15T14:13:48Z</time>
      </trkpt>
      <trkpt lat="44.62701" lon="4.97318">
        <ele>204.42</ele>
        <time>2021-12-15T14:13:51Z</time>
      </trkpt>
      <trkpt lat="44.62701" lon="4.97318">
        <ele>208.26</ele>
        <time>2021-12-15T14:13:55Z</time>
      </trkpt>
      <trkpt lat="44.62701" lon="4.97318">
        <ele>211.63</ele>
        <time>2021-12-15T14:13:58Z</time>
      </trkpt>
      <trkpt lat="44.62701" lon="4.97318">
        <ele>213.55</ele>
        <time>2021-12-15T14:14:01Z</time>
      </trkpt>
      <trkpt lat="44.62701" lon="4.97318">
        <ele>210.67</ele>
        <time>2021-12-15T14:14:06Z</time>
      </trkpt>
      <trkpt lat="44.62704" lon="4.97326">
        <ele>207.78</ele>
        <time>2021-12-15T14:14:33Z</time>
      </trkpt>
      <trkpt lat="44.62711" lon="4.9735">
        <ele>208.74</ele>
        <time>2021-12-15T14:14:55Z</time>
      </trkpt>
      <trkpt lat="44.62712" lon="4.97353">
        <ele>210.19</ele>
        <time>2021-12-15T14:14:58Z</time>
      </trkpt>
      <trkpt lat="44.62719" lon="4.97379">
        <ele>210.19</ele>
        <time>2021-12-15T14:15:18Z</time>
      </trkpt>
      <trkpt lat="44.62725" lon="4.9741">
        <ele>210.19</ele>
        <time>2021-12-15T14:15:40Z</time>
      </trkpt>
      <trkpt lat="44.62725" lon="4.97414">
        <ele>210.19</ele>
        <time>2021-12-15T14:15:43Z</time>
      </trkpt>
      <trkpt lat="44.62725" lon="4.97415">
        <ele>210.67</ele>
        <time>2021-12-15T14:15:44Z</time>
      </trkpt>
      <trkpt lat="44.62727" lon="4.97423">
        <ele>210.67</ele>
        <time>2021-12-15T14:15:51Z</time>
      </trkpt>
      <trkpt lat="44.62727" lon="4.97425">
        <ele>210.67</ele>
        <time>2021-12-15T14:15:52Z</time>
      </trkpt>
      <trkpt lat="44.62736" lon="4.97461">
        <ele>211.63</ele>
        <time>2021-12-15T14:16:18Z</time>
      </trkpt>
      <trkpt lat="44.62738" lon="4.97463">
        <ele>211.63</ele>
        <time>2021-12-15T14:16:22Z</time>
      </trkpt>
      <trkpt lat="44.6274" lon="4.97463">
        <ele>211.63</ele>
        <time>2021-12-15T14:16:24Z</time>
      </trkpt>
      <trkpt lat="44.62769" lon="4.97467">
        <ele>212.11</ele>
        <time>2021-12-15T14:16:50Z</time>
      </trkpt>
      <trkpt lat="44.62789" lon="4.97474">
        <ele>212.59</ele>
        <time>2021-12-15T14:17:10Z</time>
      </trkpt>
      <trkpt lat="44.62789" lon="4.97484">
        <ele>214.03</ele>
        <time>2021-12-15T14:17:27Z</time>
      </trkpt>
      <trkpt lat="44.62786" lon="4.9748">
        <ele>214.51</ele>
        <time>2021-12-15T14:17:39Z</time>
      </trkpt>
      <trkpt lat="44.62786" lon="4.9748">
        <ele>210.67</ele>
        <time>2021-12-15T14:17:57Z</time>
      </trkpt>
      <trkpt lat="44.62786" lon="4.9748">
        <ele>210.67</ele>
        <time>2021-12-15T14:17:58Z</time>
      </trkpt>
      <trkpt lat="44.62786" lon="4.9748">
        <ele>214.03</ele>
        <time>2021-12-15T14:18:10Z</time>
      </trkpt>
      <trkpt lat="44.62786" lon="4.97479">
        <ele>213.55</ele>
        <time>2021-12-15T14:18:37Z</time>
      </trkpt>
      <trkpt lat="44.62786" lon="4.97483">
        <ele>213.55</ele>
        <time>2021-12-15T14:18:58Z</time>
      </trkpt>
      <trkpt lat="44.62786" lon="4.97483">
        <ele>213.55</ele>
        <time>2021-12-15T14:19:05Z</time>
      </trkpt>
    </trkseg>
  </trk>
</gpx>